NOAA Web Site Link Tides and Currents Home Page Transparent placeholder image

PORTS® Data Listing: 8531680 Sandy Hook, NJ

CO-OPS RAW PORTS DATA

************************      PRELIMINARY DATA      ************************** 

     THIS RAW DATA HAS NOT BEEN SUBJECT TO THE NATIONAL OCEAN SERVICE'S        
     QUALITY CONTROL OR QUALITY ASSURANCE PROCEDURES AND DOES NOT MEET         
     THE CRITERIA AND STANDARDS OF OFFICIAL NATIONAL OCEAN SERVICE             
     DATA.  IT IS RELEASED FOR LIMITED PUBLIC USE AS PRELIMINARY DATA TO       
     BE USED ONLY WITH APPROPRIATE CAUTION.                                    

************************      PRELIMINARY DATA      ************************** 


       CD   -   Calendar date
       T    -   Time
       TZ   -   Timezone
       PW   -   Predicted water level (feet above MLLW)
       OW   -   Observed water level (feet above MLLW)
       WS   -   Wind speed (knots)
       WD   -   Wind direction (degrees true)
       WG   -   Wind gust (knots)
       AT   -   Air temperature (degrees farenheit)
       WT   -   Water temperature (degrees farenheit)
       AP   -   Air pressure (millibars)
       SA   -   Salinty (PSU - Practical Salinity Units)
       SG   -   Specific gravity
       RH   -   Relative humidity
       AG   -   Air gap (feet)
       VI   -   Visibility (nautical miles)

       ** NOTE **
       A variable that has its data fields filled with "9"s, indicates that
       data was not collected for that sample period.
       **********


STATION NAME: Sandy Hook (8531680)
****************************************************************************************************
    CD       T    TZ    PW     OW    WS   WD   WG    AT    WT    AP    SA    SG     RH    AG   VI
****************************************************************************************************
2019/05/21 17:48 EDT    0.95   1.46   15  328   19  69.1  62.6 1015.5 -9.9 -9.999 -99.9 -99.99 -9.99
2019/05/21 17:54 EDT    1.05   1.57   17  332   21  69.3  62.6 1015.6 -9.9 -9.999 -99.9 -99.99 -9.99
2019/05/21 18:00 EDT    1.15   1.63   15  332   20  69.1  62.4 1015.6 -9.9 -9.999 -99.9 -99.99 -9.99
2019/05/21 18:06 EDT    1.26   1.74   16  330   22  68.7  62.4 1015.7 -9.9 -9.999 -99.9 -99.99 -9.99
2019/05/21 18:12 EDT    1.37   1.86   15  325   18  67.8  62.4 1015.7 -9.9 -9.999 -99.9 -99.99 -9.99
2019/05/21 18:18 EDT    1.49   1.94   11  326   16  68.0  62.4 1015.9 -9.9 -9.999 -99.9 -99.99 -9.99
2019/05/21 18:24 EDT    1.61   2.06   13  331   18  68.4  62.4 1015.9 -9.9 -9.999 -99.9 -99.99 -9.99
2019/05/21 18:30 EDT    1.73   2.13   12  327   16  68.2  62.4 1015.9 -9.9 -9.999 -99.9 -99.99 -9.99
2019/05/21 18:36 EDT    1.86   2.27   12  324   17  67.6  62.4 1016.0 -9.9 -9.999 -99.9 -99.99 -9.99
2019/05/21 18:42 EDT    1.99   2.34   14  318   18  67.3  62.4 1016.0 -9.9 -9.999 -99.9 -99.99 -9.99
2019/05/21 18:48 EDT    2.12   2.46   12  326   17  66.9  62.4 1016.0 -9.9 -9.999 -99.9 -99.99 -9.99
2019/05/21 18:54 EDT    2.25   2.59   14  315   17  67.5  62.6 1016.1 -9.9 -9.999 -99.9 -99.99 -9.99
2019/05/21 19:00 EDT    2.38   2.71   13  319   18  67.3  62.6 1016.2 -9.9 -9.999 -99.9 -99.99 -9.99
2019/05/21 19:06 EDT    2.52   2.82   14  320   19  67.1  62.6 1016.2 -9.9 -9.999 -99.9 -99.99 -9.99
2019/05/21 19:12 EDT    2.65   2.95   16  316   20  67.1  62.6 1016.3 -9.9 -9.999 -99.9 -99.99 -9.99
2019/05/21 19:18 EDT    2.78   3.08   15  317   19  67.1  62.6 1016.5 -9.9 -9.999 -99.9 -99.99 -9.99
2019/05/21 19:24 EDT    2.91   3.20   15  314   18  66.9  62.6 1016.6 -9.9 -9.999 -99.9 -99.99 -9.99
2019/05/21 19:30 EDT    3.04   3.32   18  315   21  67.1  62.8 1016.7 -9.9 -9.999 -99.9 -99.99 -9.99
2019/05/21 19:36 EDT    3.17   3.44   16  323   21  66.7  62.8 1016.9 -9.9 -9.999 -99.9 -99.99 -9.99
2019/05/21 19:42 EDT    3.29   3.57   14  330   19  66.9  62.8 1017.0 -9.9 -9.999 -99.9 -99.99 -9.99
2019/05/21 19:48 EDT    3.42   3.65   15  327   20  66.9  62.6 1017.2 -9.9 -9.999 -99.9 -99.99 -9.99
2019/05/21 19:54 EDT    3.54   3.78   15  323   18  66.7  62.6 1017.2 -9.9 -9.999 -99.9 -99.99 -9.99
2019/05/21 20:00 EDT    3.66   3.89   15  328   21  66.7  62.6 1017.2 -9.9 -9.999 -99.9 -99.99 -9.99
2019/05/21 20:06 EDT    3.78   4.00   16  330   21  66.7  62.6 1017.4 -9.9 -9.999 -99.9 -99.99 -9.99
2019/05/21 20:12 EDT    3.89   4.08   14  331   19  66.0  62.6 1017.5 -9.9 -9.999 -99.9 -99.99 -9.99
2019/05/21 20:18 EDT    4.00   4.20   13  332   18  66.0  62.6 1017.6 -9.9 -9.999 -99.9 -99.99 -9.99
2019/05/21 20:24 EDT    4.11   4.29   14  331   20  66.2  62.8 1017.7 -9.9 -9.999 -99.9 -99.99 -9.99
2019/05/21 20:30 EDT    4.21   4.36   16  326   19  65.8  62.6 1017.8 -9.9 -9.999 -99.9 -99.99 -9.99
2019/05/21 20:36 EDT    4.31   4.44   13  332   17  65.8  62.6 1018.0 -9.9 -9.999 -99.9 -99.99 -9.99
2019/05/21 20:42 EDT    4.41   4.54   15  332   19  66.0  62.6 1018.1 -9.9 -9.999 -99.9 -99.99 -9.99
2019/05/21 20:48 EDT    4.51   4.62   14  331   19  65.3  62.6 1018.2 -9.9 -9.999 -99.9 -99.99 -9.99
2019/05/21 20:54 EDT    4.60   4.68   10  351   18  64.9  62.6 1018.4 -9.9 -9.999 -99.9 -99.99 -9.99
2019/05/21 21:00 EDT    4.69   4.82   10  354   18  64.4  62.6 1018.5 -9.9 -9.999 -99.9 -99.99 -9.99
2019/05/21 21:06 EDT    4.77   4.87   15  349   21  64.8  62.6 1018.6 -9.9 -9.999 -99.9 -99.99 -9.99
2019/05/21 21:12 EDT    4.85   4.94   12  349   19  64.2  62.6 1018.7 -9.9 -9.999 -99.9 -99.99 -9.99
2019/05/21 21:18 EDT    4.93   5.05   11  342   17  63.7  62.6 1018.8 -9.9 -9.999 -99.9 -99.99 -9.99
2019/05/21 21:24 EDT    5.00   5.10   13  351   21  64.2  62.6 1019.1 -9.9 -9.999 -99.9 -99.99 -9.99
2019/05/21 21:30 EDT    5.07   5.19    8  359   15  63.0  62.6 1019.3 -9.9 -9.999 -99.9 -99.99 -9.99
2019/05/21 21:36 EDT    5.14   5.26    9  354   16  63.0  62.6 1019.2 -9.9 -9.999 -99.9 -99.99 -9.99
2019/05/21 21:42 EDT    5.20   5.32   10  353   20  63.0  62.6 1019.4 -9.9 -9.999 -99.9 -99.99 -9.99
2019/05/21 21:48 EDT    5.25   5.39   10  354   15  62.4  62.4 1019.6 -9.9 -9.999 -99.9 -99.99 -9.99
2019/05/21 21:54 EDT    5.30   5.41   11  353   16  63.0  62.4 1019.7 -9.9 -9.999 -99.9 -99.99 -9.99
2019/05/21 22:00 EDT    5.35   5.44   11  351   18  62.6  62.4 1019.8 -9.9 -9.999 -99.9 -99.99 -9.99
2019/05/21 22:06 EDT    5.39   5.47   11  351   18  62.4  62.6 1019.9 -9.9 -9.999 -99.9 -99.99 -9.99
2019/05/21 22:12 EDT    5.43   5.47   11  353   17  62.4  62.4 1020.0 -9.9 -9.999 -99.9 -99.99 -9.99
2019/05/21 22:18 EDT    5.46   5.51   12  350   19  62.4  62.4 1020.1 -9.9 -9.999 -99.9 -99.99 -9.99
2019/05/21 22:24 EDT    5.48   5.53   13  346   17  62.4  62.4 1020.2 -9.9 -9.999 -99.9 -99.99 -9.99
2019/05/21 22:30 EDT    5.50   5.50   10  348   16  62.1  62.4 1020.3 -9.9 -9.999 -99.9 -99.99 -9.99
2019/05/21 22:36 EDT    5.51   5.54   11  342   16  62.1  62.4 1020.4 -9.9 -9.999 -99.9 -99.99 -9.99
2019/05/21 22:42 EDT    5.52   5.59   12  339   17  62.1  62.4 1020.4 -9.9 -9.999 -99.9 -99.99 -9.99
2019/05/21 22:48 EDT    5.52   5.58   10  343   18  62.1  62.4 1020.5 -9.9 -9.999 -99.9 -99.99 -9.99
2019/05/21 22:54 EDT    5.51   5.57   10  348   15  61.9  62.2 1020.6 -9.9 -9.999 -99.9 -99.99 -9.99
2019/05/21 23:00 EDT    5.50   5.61   10  344   15  61.9  62.2 1020.6 -9.9 -9.999 -99.9 -99.99 -9.99
2019/05/21 23:06 EDT    5.48   5.55   13  343   18  61.9  62.2 1020.5 -9.9 -9.999 -99.9 -99.99 -9.99
2019/05/21 23:12 EDT    5.45   5.55   14  343   19  62.1  62.2 1020.4 -9.9 -9.999 -99.9 -99.99 -9.99
2019/05/21 23:18 EDT    5.41   5.54   12  344   19  61.9  62.1 1020.4 -9.9 -9.999 -99.9 -99.99 -9.99
2019/05/21 23:24 EDT    5.37   5.50    9  352   17  61.5  62.1 1020.5 -9.9 -9.999 -99.9 -99.99 -9.99
2019/05/21 23:30 EDT    5.32   5.46   10  350   16  61.7  62.1 1020.6 -9.9 -9.999 -99.9 -99.99 -9.99
2019/05/21 23:36 EDT    5.27   5.40   10  347   14  61.5  62.1 1020.8 -9.9 -9.999 -99.9 -99.99 -9.99
2019/05/21 23:42 EDT    5.21   5.34   11  347   17  61.7  62.1 1020.8 -9.9 -9.999 -99.9 -99.99 -9.99
2019/05/21 23:48 EDT    5.14   5.27   12  346   17  61.5  62.1 1020.8 -9.9 -9.999 -99.9 -99.99 -9.99
2019/05/21 23:54 EDT    5.07   5.21   12  348   18  61.5  62.1 1020.8 -9.9 -9.999 -99.9 -99.99 -9.99
2019/05/22 00:00 EDT    4.99   5.10   13  342   17  61.3  62.1 1020.8 -9.9 -9.999 -99.9 -99.99 -9.99
2019/05/22 00:06 EDT    4.90   5.04    9  344   15  61.3  62.1 1020.9 -9.9 -9.999 -99.9 -99.99 -9.99
2019/05/22 00:12 EDT    4.81   4.95    8  345   15  61.2  61.9 1021.0 -9.9 -9.999 -99.9 -99.99 -9.99
2019/05/22 00:18 EDT    4.71   4.85    8  346   14  61.2  61.9 1021.0 -9.9 -9.999 -99.9 -99.99 -9.99
2019/05/22 00:24 EDT    4.61   4.75    9  344   14  61.0  61.9 1021.0 -9.9 -9.999 -99.9 -99.99 -9.99
2019/05/22 00:30 EDT    4.51   4.65   10  346   14  60.8  61.9 1021.0 -9.9 -9.999 -99.9 -99.99 -9.99
2019/05/22 00:36 EDT    4.40   4.54   11  347   16  61.0  61.9 1021.0 -9.9 -9.999 -99.9 -99.99 -9.99
2019/05/22 00:42 EDT    4.29   4.42   10  344   14  60.8  61.9 1021.1 -9.9 -9.999 -99.9 -99.99 -9.99
2019/05/22 00:48 EDT    4.17   4.32    9  350   14  60.6  61.9 1021.1 -9.9 -9.999 -99.9 -99.99 -9.99
2019/05/22 00:54 EDT    4.06   4.20   11  343   16  60.6  61.9 1021.2 -9.9 -9.999 -99.9 -99.99 -9.99
2019/05/22 01:00 EDT    3.94   4.05   11  342   15  60.4  61.9 1021.2 -9.9 -9.999 -99.9 -99.99 -9.99
2019/05/22 01:06 EDT    3.81   3.93    9  342   14  60.3  61.9 1021.2 -9.9 -9.999 -99.9 -99.99 -9.99
2019/05/22 01:12 EDT    3.69   3.83    9  342   14  60.3  61.9 1021.3 -9.9 -9.999 -99.9 -99.99 -9.99
2019/05/22 01:18 EDT    3.57   3.68    9  341   13  60.3  61.9 1021.4 -9.9 -9.999 -99.9 -99.99 -9.99
2019/05/22 01:24 EDT    3.44   3.54    9  337   11  60.3  61.9 1021.5 -9.9 -9.999 -99.9 -99.99 -9.99
2019/05/22 01:30 EDT    3.32   3.40    8  342   13  60.1  61.9 1021.4 -9.9 -9.999 -99.9 -99.99 -9.99
2019/05/22 01:36 EDT    3.19   3.28   10  340   14  60.1  61.9 1021.4 -9.9 -9.999 -99.9 -99.99 -9.99
2019/05/22 01:42 EDT    3.06   3.10   10  331   14  60.1  61.9 1021.5 -9.9 -9.999 -99.9 -99.99 -9.99
2019/05/22 01:48 EDT    2.94   2.98    9  331   13  59.9  61.9 1021.6 -9.9 -9.999 -99.9 -99.99 -9.99
2019/05/22 01:54 EDT    2.81   2.85    9  326   13  59.7  61.9 1021.7 -9.9 -9.999 -99.9 -99.99 -9.99
2019/05/22 02:00 EDT    2.69   2.68    9  327   12  59.5  61.9 1021.7 -9.9 -9.999 -99.9 -99.99 -9.99
2019/05/22 02:06 EDT    2.56   2.55    8  334   10  59.2  61.9 1021.5 -9.9 -9.999 -99.9 -99.99 -9.99
2019/05/22 02:12 EDT    2.44   2.43    9  336   11  59.4  61.9 1021.6 -9.9 -9.999 -99.9 -99.99 -9.99
2019/05/22 02:18 EDT    2.32   2.31    9  333   11  59.4  61.9 1021.6 -9.9 -9.999 -99.9 -99.99 -9.99
2019/05/22 02:24 EDT    2.20   2.16   10  337   13  59.4  61.9 1021.6 -9.9 -9.999 -99.9 -99.99 -9.99
2019/05/22 02:30 EDT    2.08   2.07    8  344   11  59.2  61.9 1021.5 -9.9 -9.999 -99.9 -99.99 -9.99
2019/05/22 02:36 EDT    1.96   1.96    8  340   11  59.2  61.7 1021.5 -9.9 -9.999 -99.9 -99.99 -9.99
2019/05/22 02:42 EDT    1.84   1.85    8  339   11  59.2  61.5 1021.7 -9.9 -9.999 -99.9 -99.99 -9.99
2019/05/22 02:48 EDT    1.73   1.73    7  336   11  59.2  61.3 1022.0 -9.9 -9.999 -99.9 -99.99 -9.99
2019/05/22 02:54 EDT    1.62   1.61    8  332   11  59.2  61.2 1022.0 -9.9 -9.999 -99.9 -99.99 -9.99
2019/05/22 03:00 EDT    1.50   1.51    7  331   10  58.8  61.2 1021.9 -9.9 -9.999 -99.9 -99.99 -9.99
2019/05/22 03:06 EDT    1.39   1.45    7  326   10  58.5  61.0 1021.9 -9.9 -9.999 -99.9 -99.99 -9.99
2019/05/22 03:12 EDT    1.29   1.32    7  319    9  58.6  61.0 1022.1 -9.9 -9.999 -99.9 -99.99 -9.99
2019/05/22 03:18 EDT    1.18   1.22    8  312   10  58.8  60.8 1022.1 -9.9 -9.999 -99.9 -99.99 -9.99
2019/05/22 03:24 EDT    1.08   1.14    8  314   10  58.8  60.8 1022.0 -9.9 -9.999 -99.9 -99.99 -9.99
2019/05/22 03:30 EDT    0.98   1.08    8  310    9  58.6  60.8 1022.1 -9.9 -9.999 -99.9 -99.99 -9.99
2019/05/22 03:36 EDT    0.89   0.99    7  305    9  58.5  60.8 1022.2 -9.9 -9.999 -99.9 -99.99 -9.99
2019/05/22 03:42 EDT    0.79   0.91    8  304    9  58.5  61.0 1022.2 -9.9 -9.999 -99.9 -99.99 -9.99
2019/05/22 03:48 EDT    0.70   0.85    9  304   10  58.6  61.2 1022.2 -9.9 -9.999 -99.9 -99.99 -9.99
2019/05/22 03:54 EDT    0.62   0.77   10  290   11  58.5  61.3 1022.3 -9.9 -9.999 -99.9 -99.99 -9.99
2019/05/22 04:00 EDT    0.54   0.70    9  287   12  58.3  61.3 1022.3 -9.9 -9.999 -99.9 -99.99 -9.99
2019/05/22 04:06 EDT    0.46   0.65   11  292   13  58.1  61.3 1022.4 -9.9 -9.999 -99.9 -99.99 -9.99
2019/05/22 04:12 EDT    0.39   0.58   11  289   13  57.9  61.3 1022.5 -9.9 -9.999 -99.9 -99.99 -9.99
2019/05/22 04:18 EDT    0.33   0.52   12  295   14  57.9  61.3 1022.6 -9.9 -9.999 -99.9 -99.99 -9.99
2019/05/22 04:24 EDT    0.26   0.46   13  298   14  57.9  61.5 1022.6 -9.9 -9.999 -99.9 -99.99 -9.99
2019/05/22 04:30 EDT    0.21   0.39   12  300   14  57.9  61.5 1022.7 -9.9 -9.999 -99.9 -99.99 -9.99
2019/05/22 04:36 EDT    0.16   0.36   11  301   13  57.9  61.5 1022.6 -9.9 -9.999 -99.9 -99.99 -9.99
2019/05/22 04:42 EDT    0.12   0.29   11  305   12  57.6  61.5 1022.6 -9.9 -9.999 -99.9 -99.99 -9.99
2019/05/22 04:48 EDT    0.09   0.26   11  305   12  57.6  61.5 1022.7 -9.9 -9.999 -99.9 -99.99 -9.99
2019/05/22 04:54 EDT    0.06   0.21   11  305   13  57.4  61.5 1022.7 -9.9 -9.999 -99.9 -99.99 -9.99
2019/05/22 05:00 EDT    0.04   0.26   12  303   13  57.4  61.5 1022.8 -9.9 -9.999 -99.9 -99.99 -9.99
2019/05/22 05:06 EDT    0.02   0.21   12  307   13  57.2  61.5 1022.8 -9.9 -9.999 -99.9 -99.99 -9.99
2019/05/22 05:12 EDT    0.02   0.18   11  310   12  57.0  61.3 1022.7 -9.9 -9.999 -99.9 -99.99 -9.99
2019/05/22 05:18 EDT    0.02   0.24   10  313   12  56.8  61.3 1022.8 -9.9 -9.999 -99.9 -99.99 -9.99
2019/05/22 05:24 EDT    0.03   0.21   10  316   12  56.8  61.3 1022.8 -9.9 -9.999 -99.9 -99.99 -9.99
2019/05/22 05:30 EDT    0.05   0.29    9  314   11  56.8  61.3 1022.9 -9.9 -9.999 -99.9 -99.99 -9.99
2019/05/22 05:36 EDT    0.07   0.30   10  310   11  56.8  61.3 1023.0 -9.9 -9.999 -99.9 -99.99 -9.99
2019/05/22 05:42 EDT    0.11   0.32   10  307   12  56.7  61.3 1023.3 -9.9 -9.999 -99.9 -99.99 -9.99
2019/05/22 05:48 EDT    0.15   0.37   11  304   13  56.7  61.2 1023.4 -9.9 -9.999 -99.9 -99.99 -9.99
2019/05/22 05:54 EDT    0.20   0.43   11  303   13  56.8  61.2 1023.4 -9.9 -9.999 -99.9 -99.99 -9.99
2019/05/22 06:00 EDT    0.25   0.48   12  300   12  56.8  61.2 1023.5 -9.9 -9.999 -99.9 -99.99 -9.99
2019/05/22 06:06 EDT    0.32   0.56   11  306   12  56.8  61.0 1023.5 -9.9 -9.999 -99.9 -99.99 -9.99
2019/05/22 06:12 EDT    0.38   0.63   12  300   13  56.8  61.0 1023.6 -9.9 -9.999 -99.9 -99.99 -9.99
2019/05/22 06:18 EDT    0.46   0.70   11  305   12  56.7  61.0 1023.6 -9.9 -9.999 -99.9 -99.99 -9.99
2019/05/22 06:24 EDT    0.54   0.77   11  303   12  56.7  61.2 1023.6 -9.9 -9.999 -99.9 -99.99 -9.99
2019/05/22 06:30 EDT    0.63   0.87   11  301   13  56.8  61.2 1023.7 -9.9 -9.999 -99.9 -99.99 -9.99
2019/05/22 06:36 EDT    0.72   0.98   11  302   13  56.8  61.2 1023.8 -9.9 -9.999 -99.9 -99.99 -9.99
2019/05/22 06:42 EDT    0.81   1.08   11  303   12  57.0  61.2 1023.9 -9.9 -9.999 -99.9 -99.99 -9.99
2019/05/22 06:48 EDT    0.91   1.15   11  299   13  56.8  61.2 1023.9 -9.9 -9.999 -99.9 -99.99 -9.99
2019/05/22 06:54 EDT    1.02   1.26   11  300   13  57.0  61.2 1024.0 -9.9 -9.999 -99.9 -99.99 -9.99
2019/05/22 07:00 EDT    1.12   1.37   11  305   13  56.7  61.2 1024.0 -9.9 -9.999 -99.9 -99.99 -9.99
2019/05/22 07:06 EDT    1.23   1.48   11  309   13  56.8  61.2 1024.1 -9.9 -9.999 -99.9 -99.99 -9.99
2019/05/22 07:12 EDT    1.34   1.57   11  305   12  56.8  61.3 1024.2 -9.9 -9.999 -99.9 -99.99 -9.99
2019/05/22 07:18 EDT    1.45   1.69   11  304   12  56.8  61.3 1024.2 -9.9 -9.999 -99.9 -99.99 -9.99
2019/05/22 07:24 EDT    1.56   1.79   11  306   12  57.0  61.5 1024.2 -9.9 -9.999 -99.9 -99.99 -9.99
2019/05/22 07:30 EDT    1.68   1.87   10  305   12  57.0  61.5 1024.3 -9.9 -9.999 -99.9 -99.99 -9.99
2019/05/22 07:36 EDT    1.79   2.02   10  307   11  57.2  61.5 1024.5 -9.9 -9.999 -99.9 -99.99 -9.99
2019/05/22 07:42 EDT    1.90   2.10   10  306   12  57.4  61.5 1024.6 -9.9 -9.999 -99.9 -99.99 -9.99
2019/05/22 07:48 EDT    2.02   2.20   11  303   13  57.2  61.5 1024.7 -9.9 -9.999 -99.9 -99.99 -9.99
2019/05/22 07:54 EDT    2.13   2.32    9  309   13  57.4  61.5 1024.6 -9.9 -9.999 -99.9 -99.99 -9.99
2019/05/22 08:00 EDT    2.24   2.43    9  309   11  57.7  61.5 1024.6 -9.9 -9.999 -99.9 -99.99 -9.99
2019/05/22 08:06 EDT    2.35   2.55    9  308   11  57.7  61.7 1024.7 -9.9 -9.999 -99.9 -99.99 -9.99
2019/05/22 08:12 EDT    2.46   2.66    8  307   11  57.9  61.5 1024.8 -9.9 -9.999 -99.9 -99.99 -9.99
2019/05/22 08:18 EDT    2.56   2.74   10  302   11  58.1  61.7 1024.9 -9.9 -9.999 -99.9 -99.99 -9.99
2019/05/22 08:24 EDT    2.67   2.84    9  296   11  58.3  61.7 1025.0 -9.9 -9.999 -99.9 -99.99 -9.99
2019/05/22 08:30 EDT    2.77   2.94    9  299   10  58.3  61.7 1025.0 -9.9 -9.999 -99.9 -99.99 -9.99
2019/05/22 08:36 EDT    2.87   3.03    9  297   11  58.8  61.7 1025.2 -9.9 -9.999 -99.9 -99.99 -9.99
2019/05/22 08:42 EDT    2.97   3.12    9  296   11  59.0  61.9 1025.1 -9.9 -9.999 -99.9 -99.99 -9.99
2019/05/22 08:48 EDT    3.07   3.20   10  291   12  59.4  61.9 1025.2 -9.9 -9.999 -99.9 -99.99 -9.99
2019/05/22 08:54 EDT    3.16   3.28    9  286   11  59.5  61.9 1025.2 -9.9 -9.999 -99.9 -99.99 -9.99
2019/05/22 09:00 EDT    3.25   3.39    9  284   11  59.7  61.9 1025.3 -9.9 -9.999 -99.9 -99.99 -9.99
2019/05/22 09:06 EDT    3.34   3.48    8  292   10  59.7  61.9 1025.3 -9.9 -9.999 -99.9 -99.99 -9.99
2019/05/22 09:12 EDT    3.43   3.54    9  294   11  59.9  61.9 1025.4 -9.9 -9.999 -99.9 -99.99 -9.99
2019/05/22 09:18 EDT    3.51   3.63   10  295   11  59.9  61.9 1025.4 -9.9 -9.999 -99.9 -99.99 -9.99
2019/05/22 09:24 EDT    3.59   3.72    9  293   11  60.3  61.9 1025.4 -9.9 -9.999 -99.9 -99.99 -9.99
2019/05/22 09:30 EDT    3.67   3.81    8  290   11  60.6  61.9 1025.3 -9.9 -9.999 -99.9 -99.99 -9.99
2019/05/22 09:36 EDT    3.75   3.89    9  285   10  60.8  61.9 1025.3 -9.9 -9.999 -99.9 -99.99 -9.99
2019/05/22 09:42 EDT    3.82   3.97    9  289   11  60.8  61.9 1025.3 -9.9 -9.999 -99.9 -99.99 -9.99
2019/05/22 09:48 EDT    3.89   4.03    8  294   10  61.0  61.9 1025.2 -9.9 -9.999 -99.9 -99.99 -9.99
2019/05/22 09:54 EDT    3.96   4.09    9  315   12  61.9  61.9 1025.2 -9.9 -9.999 -99.9 -99.99 -9.99
2019/05/22 10:00 EDT    4.02   4.14    8  333   12  63.3  61.9 1025.1 -9.9 -9.999 -99.9 -99.99 -9.99
2019/05/22 10:06 EDT    4.08   4.23   10  331   14  63.5  61.9 1025.3 -9.9 -9.999 -99.9 -99.99 -9.99
2019/05/22 10:12 EDT    4.14   4.29    8  333   12  64.0  62.1 1025.4 -9.9 -9.999 -99.9 -99.99 -9.99
2019/05/22 10:18 EDT    4.20   4.37   10  333   13  63.7  62.1 1025.4 -9.9 -9.999 -99.9 -99.99 -9.99
2019/05/22 10:24 EDT    4.25   4.43   10  332   13  63.5  62.1 1025.4 -9.9 -9.999 -99.9 -99.99 -9.99
2019/05/22 10:30 EDT    4.29   4.51    8  333   12  64.0  62.1 1025.6 -9.9 -9.999 -99.9 -99.99 -9.99
2019/05/22 10:36 EDT    4.33   4.55    8  339   11  64.0  62.1 1025.5 -9.9 -9.999 -99.9 -99.99 -9.99
2019/05/22 10:42 EDT    4.37   4.64    7  328   10  63.9  62.1 1025.6 -9.9 -9.999 -99.9 -99.99 -9.99
2019/05/22 10:48 EDT    4.40   4.69    9  314   11  63.7  62.1 1025.7 -9.9 -9.999 -99.9 -99.99 -9.99
2019/05/22 10:54 EDT    4.43   4.73    9  318   11  63.9  62.1 1025.7 -9.9 -9.999 -99.9 -99.99 -9.99
2019/05/22 11:00 EDT    4.45   4.75    7  297   11  63.7  62.1 1025.7 -9.9 -9.999 -99.9 -99.99 -9.99
2019/05/22 11:06 EDT    4.47   4.84    6  308    9  64.2  62.1 1025.8 -9.9 -9.999 -99.9 -99.99 -9.99
2019/05/22 11:12 EDT    4.48   4.84    8  283    9  63.7  62.1 1025.8 -9.9 -9.999 -99.9 -99.99 -9.99
2019/05/22 11:18 EDT    4.48   4.85    6  277    8  63.9  62.1 1025.8 -9.9 -9.999 -99.9 -99.99 -9.99
2019/05/22 11:24 EDT    4.48   4.87    7  259    8  62.8  62.1 1025.8 -9.9 -9.999 -99.9 -99.99 -9.99
2019/05/22 11:30 EDT    4.47   4.83    3  259    8  63.3  62.1 1025.8 -9.9 -9.999 -99.9 -99.99 -9.99
2019/05/22 11:36 EDT    4.46   4.80    5  286    6  64.2  62.2 1025.8 -9.9 -9.999 -99.9 -99.99 -9.99
2019/05/22 11:42 EDT    4.44   4.82    5  260    6  63.5  62.2 1025.8 -9.9 -9.999 -99.9 -99.99 -9.99
2019/05/22 11:48 EDT    4.41   4.78    6  256    8  62.8  62.2 1025.7 -9.9 -9.999 -99.9 -99.99 -9.99
2019/05/22 11:54 EDT    4.38   4.73    5  249    7  63.1  62.2 1025.7 -9.9 -9.999 -99.9 -99.99 -9.99
2019/05/22 12:00 EDT    4.34   4.70    5  248    5  63.1  62.2 1025.6 -9.9 -9.999 -99.9 -99.99 -9.99
2019/05/22 12:06 EDT    4.30   4.66    6  238    6  63.1  62.2 1025.5 -9.9 -9.999 -99.9 -99.99 -9.99
2019/05/22 12:12 EDT    4.25   4.61    5  242    6  63.3  62.2 1025.5 -9.9 -9.999 -99.9 -99.99 -9.99
2019/05/22 12:18 EDT    4.19   4.55    5  248    6  63.5  62.2 1025.5 -9.9 -9.999 -99.9 -99.99 -9.99
2019/05/22 12:24 EDT    4.13   4.47    4  240    5  63.9  62.2 1025.3 -9.9 -9.999 -99.9 -99.99 -9.99
2019/05/22 12:30 EDT    4.07   4.42    3  246    4  64.0  62.2 1025.3 -9.9 -9.999 -99.9 -99.99 -9.99
2019/05/22 12:36 EDT    4.00   4.33    5  252    5  63.9  62.2 1025.3 -9.9 -9.999 -99.9 -99.99 -9.99
2019/05/22 12:42 EDT    3.92   4.24    5  256    5  64.2  62.2 1025.2 -9.9 -9.999 -99.9 -99.99 -9.99
2019/05/22 12:48 EDT    3.84   4.14    5  247    6  64.4  62.2 1025.1 -9.9 -9.999 -99.9 -99.99 -9.99
2019/05/22 12:54 EDT    3.76   4.04    5  238    6  64.4  62.2 1025.0 -9.9 -9.999 -99.9 -99.99 -9.99
2019/05/22 13:00 EDT    3.68   3.92    5  228    6  64.4  62.2 1024.9 -9.9 -9.999 -99.9 -99.99 -9.99
2019/05/22 13:06 EDT    3.59   3.84    5  227    6  64.6  62.2 1025.1 -9.9 -9.999 -99.9 -99.99 -9.99
2019/05/22 13:12 EDT    3.50   3.73    5  231    6  64.8  62.6 1025.3 -9.9 -9.999 -99.9 -99.99 -9.99
2019/05/22 13:18 EDT    3.40   3.61    4  230    6  64.9  63.1 1025.3 -9.9 -9.999 -99.9 -99.99 -9.99
2019/05/22 13:24 EDT    3.31   3.49    4  227    5  65.1  63.5 1025.2 -9.9 -9.999 -99.9 -99.99 -9.99
2019/05/22 13:30 EDT    3.21   3.38    4  222    5  65.3  63.9 1025.2 -9.9 -9.999 -99.9 -99.99 -9.99
2019/05/22 13:36 EDT    3.11   3.25    5  225    6  65.5  64.0 1025.2 -9.9 -9.999 -99.9 -99.99 -9.99
2019/05/22 13:42 EDT    3.02   3.14    4  209    5  65.7  64.2 1025.0 -9.9 -9.999 -99.9 -99.99 -9.99
2019/05/22 13:48 EDT    2.92   3.01    5  212    5  65.8  64.4 1024.7 -9.9 -9.999 -99.9 -99.99 -9.99
2019/05/22 13:54 EDT    2.82   2.91    4  191    4  66.0  64.6 1024.6 -9.9 -9.999 -99.9 -99.99 -9.99
2019/05/22 14:00 EDT    2.72   2.79    5  179    6  66.0  64.6 1024.6 -9.9 -9.999 -99.9 -99.99 -9.99
2019/05/22 14:06 EDT    2.62   2.67    5  192    6  66.2  64.6 1024.8 -9.9 -9.999 -99.9 -99.99 -9.99
2019/05/22 14:12 EDT    2.52   2.57    5  191    6  66.4  64.8 1024.7 -9.9 -9.999 -99.9 -99.99 -9.99
2019/05/22 14:18 EDT    2.43   2.45    5  192    6  66.6  64.9 1024.8 -9.9 -9.999 -99.9 -99.99 -9.99
2019/05/22 14:24 EDT    2.33   2.34    4  197    5  66.7  64.9 1024.9 -9.9 -9.999 -99.9 -99.99 -9.99
2019/05/22 14:30 EDT    2.24   2.23    5  223    6  67.1  64.9 1025.0 -9.9 -9.999 -99.9 -99.99 -9.99
2019/05/22 14:36 EDT    2.15   2.13    6  244    7  67.3  64.9 1025.0 -9.9 -9.999 -99.9 -99.99 -9.99
2019/05/22 14:42 EDT    2.06   2.05    5  242    6  67.5  64.9 1025.0 -9.9 -9.999 -99.9 -99.99 -9.99
2019/05/22 14:48 EDT    1.97   1.94    8  257    9  67.3  64.9 1024.9 -9.9 -9.999 -99.9 -99.99 -9.99
2019/05/22 14:54 EDT    1.88   1.83    7  270    8  68.2  64.9 1024.8 -9.9 -9.999 -99.9 -99.99 -9.99
2019/05/22 15:00 EDT    1.79   1.78    6  269    8  68.2  64.9 1024.8 -9.9 -9.999 -99.9 -99.99 -9.99
2019/05/22 15:06 EDT    1.71   1.70    7  267    8  68.4  64.9 1024.7 -9.9 -9.999 -99.9 -99.99 -9.99
2019/05/22 15:12 EDT    1.63   1.64    7  269    9  68.9  65.1 1024.7 -9.9 -9.999 -99.9 -99.99 -9.99
2019/05/22 15:18 EDT    1.55   1.56    5  270    7  69.1  65.3 1024.6 -9.9 -9.999 -99.9 -99.99 -9.99
2019/05/22 15:24 EDT    1.47   1.51    4  271    5  69.3  65.3 1024.6 -9.9 -9.999 -99.9 -99.99 -9.99
2019/05/22 15:30 EDT    1.39   1.45    4  274    5  69.6  65.1 1024.6 -9.9 -9.999 -99.9 -99.99 -9.99
2019/05/22 15:36 EDT    1.32   1.40    3  284    4  70.2  65.1 1024.6 -9.9 -9.999 -99.9 -99.99 -9.99
2019/05/22 15:42 EDT    1.25   1.33    3  308    3  70.3  65.3 1024.6 -9.9 -9.999 -99.9 -99.99 -9.99
2019/05/22 15:48 EDT    1.18   1.30    3  280    4  71.1  65.3 1024.6 -9.9 -9.999 -99.9 -99.99 -9.99
2019/05/22 15:54 EDT    1.12   1.23    4  300    4  71.2  65.5 1024.6 -9.9 -9.999 -99.9 -99.99 -9.99
2019/05/22 16:00 EDT    1.06   1.18    2  314    4  71.2  65.7 1024.5 -9.9 -9.999 -99.9 -99.99 -9.99
2019/05/22 16:06 EDT    1.00   1.13    4  312    5  71.4  65.7 1024.5 -9.9 -9.999 -99.9 -99.99 -9.99
2019/05/22 16:12 EDT    0.95   1.09    2  280    5  72.3  65.7 1024.4 -9.9 -9.999 -99.9 -99.99 -9.99
2019/05/22 16:18 EDT    0.89   1.06    2  288    3  73.0  65.8 1024.3 -9.9 -9.999 -99.9 -99.99 -9.99
2019/05/22 16:24 EDT    0.85   1.01    1  279    3  72.9  65.8 1024.3 -9.9 -9.999 -99.9 -99.99 -9.99
2019/05/22 16:30 EDT    0.81   0.98    3  290    3  73.0  65.8 1024.4 -9.9 -9.999 -99.9 -99.99 -9.99
2019/05/22 16:36 EDT    0.77   0.97    2  285    3  73.2  66.0 1024.4 -9.9 -9.999 -99.9 -99.99 -9.99
2019/05/22 16:42 EDT    0.73   0.94    1  290    2  73.2  66.0 1024.7 -9.9 -9.999 -99.9 -99.99 -9.99
2019/05/22 16:48 EDT    0.71   0.93    2  282    2  73.2  66.0 1024.6 -9.9 -9.999 -99.9 -99.99 -9.99
2019/05/22 16:54 EDT    0.68   0.91    1  255    3  72.7  66.0 1024.7 -9.9 -9.999 -99.9 -99.99 -9.99
2019/05/22 17:00 EDT    0.67   0.91    1  228    1  71.8  66.2 1024.7 -9.9 -9.999 -99.9 -99.99 -9.99
2019/05/22 17:06 EDT    0.66   0.92    5  172    7  69.8  66.2 1024.6 -9.9 -9.999 -99.9 -99.99 -9.99
2019/05/22 17:12 EDT    0.65   0.89    8  163    9  69.4  66.2 1024.5 -9.9 -9.999 -99.9 -99.99 -9.99
2019/05/22 17:18 EDT    0.65   0.92    6  162    8  69.8  66.2 1024.5 -9.9 -9.999 -99.9 -99.99 -9.99
2019/05/22 17:24 EDT    0.66   0.92    7  151    9  69.4  66.2 1024.6 -9.9 -9.999 -99.9 -99.99 -9.99
2019/05/22 17:30 EDT    0.68   0.95    9  171   11  67.8  66.4 1024.7 -9.9 -9.999 -99.9 -99.99 -9.99
2019/05/22 17:36 EDT    0.70   0.97   11  169   14  67.6  66.4 1024.7 -9.9 -9.999 -99.9 -99.99 -9.99
2019/05/22 17:42 EDT    0.73   1.01   10  171   11  68.4  66.4 1024.6 -9.9 -9.999 -99.9 -99.99 -9.99
2019/05/22 17:48 EDT    0.76   1.04    9  165   11  68.5  66.4 1024.6 -9.9 -9.999 -99.9 -99.99 -9.99
2019/05/22 17:54 EDT    0.80   1.10   10  168   11  68.2  66.4 1024.5 -9.9 -9.999 -99.9 -99.99 -9.99
2019/05/22 18:00 EDT    0.85   1.15    9  169   11  68.4  66.6 1024.4 -9.9 -9.999 -99.9 -99.99 -9.99
2019/05/22 18:06 EDT    0.91   1.22    8  166   10  68.5  66.7 1024.3 -9.9 -9.999 -99.9 -99.99 -9.99
2019/05/22 18:12 EDT    0.97   1.29    8  170    9  68.5  66.7 1024.3 -9.9 -9.999 -99.9 -99.99 -9.99
2019/05/22 18:18 EDT    1.04   1.36    9  167   11  68.9  66.7 1024.2 -9.9 -9.999 -99.9 -99.99 -9.99
2019/05/22 18:24 EDT    1.11   1.45   10  169   11  69.1  66.9 1024.2 -9.9 -9.999 -99.9 -99.99 -9.99
2019/05/22 18:30 EDT    1.19   1.52   10  168   11  69.3  66.9 1024.2 -9.9 -9.999 -99.9 -99.99 -9.99
2019/05/22 18:36 EDT    1.28   1.62    8  156   12  69.1  66.9 1024.2 -9.9 -9.999 -99.9 -99.99 -9.99
2019/05/22 18:42 EDT    1.37   1.67    8  159   10  69.1  67.1 1024.2 -9.9 -9.999 -99.9 -99.99 -9.99
2019/05/22 18:48 EDT    1.46   1.84    7  161    9  69.1  67.1 1024.1 -9.9 -9.999 -99.9 -99.99 -9.99
2019/05/22 18:54 EDT    1.56   1.92    7  157    9  69.4  67.1 1024.1 -9.9 -9.999 -99.9 -99.99 -9.99
2019/05/22 19:00 EDT    1.66   2.02   10  160   12  69.4  67.1 1024.1 -9.9 -9.999 -99.9 -99.99 -9.99
2019/05/22 19:06 EDT    1.77   2.13    9  165   11  69.1  66.9 1024.1 -9.9 -9.999 -99.9 -99.99 -9.99
2019/05/22 19:12 EDT    1.88   2.24   10  175   11  68.5  66.7 1024.2 -9.9 -9.999 -99.9 -99.99 -9.99
2019/05/22 19:18 EDT    1.99   2.33    8  180   10  68.4  66.6 1024.2 -9.9 -9.999 -99.9 -99.99 -9.99
2019/05/22 19:24 EDT    2.10   2.44   11  180   13  68.4  66.4 1024.2 -9.9 -9.999 -99.9 -99.99 -9.99
2019/05/22 19:30 EDT    2.22   2.57   10  181   12  68.2  66.4 1024.2 -9.9 -9.999 -99.9 -99.99 -9.99
2019/05/22 19:36 EDT    2.33   2.68   10  187   11  67.8  66.4 1024.2 -9.9 -9.999 -99.9 -99.99 -9.99
2019/05/22 19:42 EDT    2.45   2.76   10  186   11  67.6  66.4 1024.1 -9.9 -9.999 -99.9 -99.99 -9.99
2019/05/22 19:48 EDT    2.56   2.90   11  187   12  67.6  66.2 1024.0 -9.9 -9.999 -99.9 -99.99 -9.99
2019/05/22 19:54 EDT    2.68   3.04    9  193   12  67.5  66.4 1024.1 -9.9 -9.999 -99.9 -99.99 -9.99
2019/05/22 20:00 EDT    2.79   3.13    9  197   10  67.6  66.2 1024.3 -9.9 -9.999 -99.9 -99.99 -9.99
2019/05/22 20:06 EDT    2.91   3.27   10  195   12  67.5  66.6 1024.4 -9.9 -9.999 -99.9 -99.99 -9.99
2019/05/22 20:12 EDT    3.02   3.38   10  195   12  67.5  66.7 1024.3 -9.9 -9.999 -99.9 -99.99 -9.99
2019/05/22 20:18 EDT    3.13   3.52   11  194   11  67.1  66.9 1024.2 -9.9 -9.999 -99.9 -99.99 -9.99
2019/05/22 20:24 EDT    3.24   3.60   11  194   12  67.1  66.9 1024.2 -9.9 -9.999 -99.9 -99.99 -9.99
2019/05/22 20:30 EDT    3.35   3.71   10  192   12  66.9  66.9 1024.2 -9.9 -9.999 -99.9 -99.99 -9.99
2019/05/22 20:36 EDT    3.45   3.80    9  199   12  66.6  66.9 1024.0 -9.9 -9.999 -99.9 -99.99 -9.99
2019/05/22 20:42 EDT    3.55   3.90   10  201   13  66.4  66.7 1024.1 -9.9 -9.999 -99.9 -99.99 -9.99
2019/05/22 20:48 EDT    3.65   3.99   10  198   13  66.4  66.6 1024.3 -9.9 -9.999 -99.9 -99.99 -9.99
2019/05/22 20:54 EDT    3.75   4.09   11  204   12  66.0  66.6 1024.4 -9.9 -9.999 -99.9 -99.99 -9.99
2019/05/22 21:00 EDT    3.84   4.20   10  208   12  65.8  66.6 1024.6 -9.9 -9.999 -99.9 -99.99 -9.99
2019/05/22 21:06 EDT    3.94   4.27   12  213   13  65.8  66.6 1024.6 -9.9 -9.999 -99.9 -99.99 -9.99
2019/05/22 21:12 EDT    4.02   4.34   11  210   13  65.7  66.7 1024.6 -9.9 -9.999 -99.9 -99.99 -9.99
2019/05/22 21:18 EDT    4.11   4.49   12  209   14  65.7  66.6 1024.8 -9.9 -9.999 -99.9 -99.99 -9.99
2019/05/22 21:24 EDT    4.19   4.52   11  210   13  65.3  66.6 1024.8 -9.9 -9.999 -99.9 -99.99 -9.99
2019/05/22 21:30 EDT    4.27   4.61   10  210   12  65.3  66.6 1025.0 -9.9 -9.999 -99.9 -99.99 -9.99
2019/05/22 21:36 EDT    4.35   4.70   10  209   12  65.3  66.6 1025.0 -9.9 -9.999 -99.9 -99.99 -9.99
2019/05/22 21:42 EDT    4.43   4.76   10  212   12  64.9  66.6 1025.0 -9.9 -9.999 -99.9 -99.99 -9.99
2019/05/22 21:48 EDT    4.50   4.83   11  210   12  64.9  66.6 1025.0 -9.9 -9.999 -99.9 -99.99 -9.99
2019/05/22 21:54 EDT    4.57   4.90   11  212   13  64.8  66.6 1025.0 -9.9 -9.999 -99.9 -99.99 -9.99
2019/05/22 22:00 EDT    4.64   4.98   12  213   13  64.8  66.6 1025.0 -9.9 -9.999 -99.9 -99.99 -9.99
2019/05/22 22:06 EDT    4.70   5.03   12  212   13  64.8  66.6 1025.0 -9.9 -9.999 -99.9 -99.99 -9.99
2019/05/22 22:12 EDT    4.76   5.11   12  212   13  64.6  66.6 1025.1 -9.9 -9.999 -99.9 -99.99 -9.99
2019/05/22 22:18 EDT    4.82   5.13   12  216   13  64.4  66.6 1025.1 -9.9 -9.999 -99.9 -99.99 -9.99
2019/05/22 22:24 EDT    4.87   5.20   12  219   14  64.4  66.6 1025.1 -9.9 -9.999 -99.9 -99.99 -9.99
2019/05/22 22:30 EDT    4.93   5.23   12  221   13  64.2  66.6 1025.1 -9.9 -9.999 -99.9 -99.99 -9.99
2019/05/22 22:36 EDT    4.97   5.28   11  221   14  63.9  66.6 1025.1 -9.9 -9.999 -99.9 -99.99 -9.99
2019/05/22 22:42 EDT    5.02   5.30   11  211   12  64.0  66.6 1024.8 -9.9 -9.999 -99.9 -99.99 -9.99
2019/05/22 22:48 EDT    5.06   5.34    9  209   12  63.9  66.6 1024.8 -9.9 -9.999 -99.9 -99.99 -9.99
2019/05/22 22:54 EDT    5.09   5.39   11  214   13  63.9  66.6 1024.8 -9.9 -9.999 -99.9 -99.99 -9.99
2019/05/22 23:00 EDT    5.12   5.43   12  218   14  63.9  66.6 1025.0 -9.9 -9.999 -99.9 -99.99 -9.99
2019/05/22 23:06 EDT    5.15   5.48   12  216   14  63.7  66.6 1025.1 -9.9 -9.999 -99.9 -99.99 -9.99
2019/05/22 23:12 EDT    5.17   5.48   12  212   14  63.7  66.6 1025.1 -9.9 -9.999 -99.9 -99.99 -9.99
2019/05/22 23:18 EDT    5.19   5.52   12  216   14  63.5  66.6 1025.1 -9.9 -9.999 -99.9 -99.99 -9.99
2019/05/22 23:24 EDT    5.20   5.53   12  224   14  63.3  66.6 1025.1 -9.9 -9.999 -99.9 -99.99 -9.99
2019/05/22 23:30 EDT    5.20   5.53   14  216   16  63.3  66.4 1024.9 -9.9 -9.999 -99.9 -99.99 -9.99
2019/05/22 23:36 EDT    5.20   5.53   13  215   16  63.1  66.4 1024.9 -9.9 -9.999 -99.9 -99.99 -9.99
2019/05/22 23:42 EDT    5.20   5.50   14  220   16  63.0  66.4 1025.1 -9.9 -9.999 -99.9 -99.99 -9.99
2019/05/22 23:48 EDT    5.18   5.52   13  222   16  63.0  66.4 1025.0 -9.9 -9.999 -99.9 -99.99 -9.99
2019/05/22 23:54 EDT    5.16   5.50   13  223   15  63.0  66.4 1025.0 -9.9 -9.999 -99.9 -99.99 -9.99
2019/05/23 00:00 EDT    5.14   5.46   12  222   15  62.8  66.2 1025.0 -9.9 -9.999 -99.9 -99.99 -9.99
2019/05/23 00:06 EDT    5.11   5.45   12  218   14  62.8  66.2 1024.9 -9.9 -9.999 -99.9 -99.99 -9.99
2019/05/23 00:12 EDT    5.07   5.43   13  219   14  62.8  66.2 1025.0 -9.9 -9.999 -99.9 -99.99 -9.99
2019/05/23 00:18 EDT    5.02   5.39   12  219   15  62.6  66.2 1024.8 -9.9 -9.999 -99.9 -99.99 -9.99
2019/05/23 00:24 EDT    4.97   5.34   12  220   14  62.6  66.4 1024.8 -9.9 -9.999 -99.9 -99.99 -9.99
2019/05/23 00:30 EDT    4.91   5.30   13  220   15  62.6  66.4 1024.6 -9.9 -9.999 -99.9 -99.99 -9.99
2019/05/23 00:36 EDT    4.85   5.24   14  220   15  62.6  66.2 1024.6 -9.9 -9.999 -99.9 -99.99 -9.99
2019/05/23 00:42 EDT    4.78   5.16   14  221   15  62.6  66.2 1024.5 -9.9 -9.999 -99.9 -99.99 -9.99
2019/05/23 00:48 EDT    4.71   5.10   14  219   16  62.8  66.2 1024.4 -9.9 -9.999 -99.9 -99.99 -9.99
2019/05/23 00:54 EDT    4.63   5.01   14  221   16  62.8  66.2 1024.3 -9.9 -9.999 -99.9 -99.99 -9.99
2019/05/23 01:00 EDT    4.54   4.92   13  226   15  62.8  66.2 1024.4 -9.9 -9.999 -99.9 -99.99 -9.99
2019/05/23 01:06 EDT    4.45   4.84   13  220   16  62.8  66.2 1024.3 -9.9 -9.999 -99.9 -99.99 -9.99
2019/05/23 01:12 EDT    4.36   4.76   13  218   15  62.8  66.0 1024.2 -9.9 -9.999 -99.9 -99.99 -9.99
2019/05/23 01:18 EDT    4.26   4.66   12  222   14  62.8  66.0 1024.2 -9.9 -9.999 -99.9 -99.99 -9.99
2019/05/23 01:24 EDT    4.16   4.54   13  228   14  62.6  65.8 1024.2 -9.9 -9.999 -99.9 -99.99 -9.99
2019/05/23 01:30 EDT    4.05   4.42   12  226   14  62.6  65.8 1024.3 -9.9 -9.999 -99.9 -99.99 -9.99
2019/05/23 01:36 EDT    3.94   4.36   11  227   14  62.6  65.8 1024.2 -9.9 -9.999 -99.9 -99.99 -9.99
2019/05/23 01:42 EDT    3.83   4.19   10  222   12  62.6  65.8 1024.1 -9.9 -9.999 -99.9 -99.99 -9.99
2019/05/23 01:48 EDT    3.72   4.08   10  224   11  62.6  66.0 1024.1 -9.9 -9.999 -99.9 -99.99 -9.99
2019/05/23 01:54 EDT    3.61   3.97   10  224   11  62.4  65.8 1024.0 -9.9 -9.999 -99.9 -99.99 -9.99
2019/05/23 02:00 EDT    3.49   3.85    9  221   11  62.4  65.8 1024.0 -9.9 -9.999 -99.9 -99.99 -9.99
2019/05/23 02:06 EDT    3.37   3.68    9  219   10  62.4  66.0 1024.0 -9.9 -9.999 -99.9 -99.99 -9.99
2019/05/23 02:12 EDT    3.26   3.58    8  227   10  62.4  66.0 1023.9 -9.9 -9.999 -99.9 -99.99 -9.99
2019/05/23 02:18 EDT    3.14   3.48    9  227   10  62.4  66.0 1023.9 -9.9 -9.999 -99.9 -99.99 -9.99
2019/05/23 02:24 EDT    3.02   3.36    9  229   10  62.2  65.8 1023.9 -9.9 -9.999 -99.9 -99.99 -9.99
2019/05/23 02:30 EDT    2.90   3.20    9  223   10  62.2  65.8 1023.8 -9.9 -9.999 -99.9 -99.99 -9.99
2019/05/23 02:36 EDT    2.79   3.11    9  216   10  62.2  65.8 1023.8 -9.9 -9.999 -99.9 -99.99 -9.99
2019/05/23 02:42 EDT    2.67   2.98    9  205   11  62.1  65.8 1023.6 -9.9 -9.999 -99.9 -99.99 -9.99
2019/05/23 02:48 EDT    2.56   2.86   10  216   12  61.9  65.7 1023.5 -9.9 -9.999 -99.9 -99.99 -9.99
2019/05/23 02:54 EDT    2.44   2.71   11  216   11  61.7  65.7 1023.6 -9.9 -9.999 -99.9 -99.99 -9.99
2019/05/23 03:00 EDT    2.33   2.64    9  213   11  61.7  65.7 1023.6 -9.9 -9.999 -99.9 -99.99 -9.99
2019/05/23 03:06 EDT    2.22   2.52   10  213   11  61.5  65.7 1023.5 -9.9 -9.999 -99.9 -99.99 -9.99
2019/05/23 03:12 EDT    2.11   2.39   10  207   11  61.3  65.7 1023.4 -9.9 -9.999 -99.9 -99.99 -9.99
2019/05/23 03:18 EDT    2.01   2.29   11  209   12  61.2  65.7 1023.3 -9.9 -9.999 -99.9 -99.99 -9.99
2019/05/23 03:24 EDT    1.90   2.23   10  205   11  61.2  65.5 1023.3 -9.9 -9.999 -99.9 -99.99 -9.99
2019/05/23 03:30 EDT    1.80   2.09   12  205   13  61.2  65.5 1023.2 -9.9 -9.999 -99.9 -99.99 -9.99
2019/05/23 03:36 EDT    1.70   2.00   13  209   16  60.8  65.5 1023.4 -9.9 -9.999 -99.9 -99.99 -9.99
2019/05/23 03:42 EDT    1.60   1.92   12  216   14  60.8  65.5 1023.5 -9.9 -9.999 -99.9 -99.99 -9.99
2019/05/23 03:48 EDT    1.50   1.81   11  215   14  60.8  65.5 1023.5 -9.9 -9.999 -99.9 -99.99 -9.99
2019/05/23 03:54 EDT    1.41   1.73   11  211   12  60.8  65.5 1023.4 -9.9 -9.999 -99.9 -99.99 -9.99
2019/05/23 04:00 EDT    1.31   1.64   11  205   12  61.0  65.5 1023.5 -9.9 -9.999 -99.9 -99.99 -9.99
2019/05/23 04:06 EDT    1.22   1.57   10  208   12  61.0  65.3 1023.6 -9.9 -9.999 -99.9 -99.99 -9.99
2019/05/23 04:12 EDT    1.14   1.46   11  210   13  60.8  65.3 1023.3 -9.9 -9.999 -99.9 -99.99 -9.99
2019/05/23 04:18 EDT    1.05   1.38   11  212   14  60.8  65.3 1023.5 -9.9 -9.999 -99.9 -99.99 -9.99
2019/05/23 04:24 EDT    0.97   1.33   11  214   15  60.6  65.1 1023.6 -9.9 -9.999 -99.9 -99.99 -9.99
2019/05/23 04:30 EDT    0.90   1.26   10  218   13  60.6  65.1 1023.8 -9.9 -9.999 -99.9 -99.99 -9.99
2019/05/23 04:36 EDT    0.82   1.18    9  234   13  60.6  65.1 1024.1 -9.9 -9.999 -99.9 -99.99 -9.99
2019/05/23 04:42 EDT    0.75   1.15    7  243   10  60.8  65.1 1024.3 -9.9 -9.999 -99.9 -99.99 -9.99
2019/05/23 04:48 EDT    0.69   1.08    7  263    8  60.4  65.1 1024.5 -9.9 -9.999 -99.9 -99.99 -9.99
2019/05/23 04:54 EDT    0.63   1.03    6  264    8  60.3  65.1 1024.6 -9.9 -9.999 -99.9 -99.99 -9.99
2019/05/23 05:00 EDT    0.57   1.01    5  267    6  60.3  65.1 1024.8 -9.9 -9.999 -99.9 -99.99 -9.99
2019/05/23 05:06 EDT    0.52   0.92    4  324    6  59.9  64.9 1024.9 -9.9 -9.999 -99.9 -99.99 -9.99
2019/05/23 05:12 EDT    0.47   0.90    3  333    4  59.7  64.9 1025.0 -9.9 -9.999 -99.9 -99.99 -9.99
2019/05/23 05:18 EDT    0.43   0.86    1  358    3  59.7  64.9 1025.0 -9.9 -9.999 -99.9 -99.99 -9.99
2019/05/23 05:24 EDT    0.39   0.83    1  338    3  59.7  64.9 1024.9 -9.9 -9.999 -99.9 -99.99 -9.99
2019/05/23 05:30 EDT    0.36   0.81    2    4    3  59.4  64.9 1025.0 -9.9 -9.999 -99.9 -99.99 -9.99
2019/05/23 05:36 EDT    0.33   0.79    2   22    4  59.4  64.9 1024.9 -9.9 -9.999 -99.9 -99.99 -9.99
2019/05/23 05:42 EDT    0.32   0.81    1  327    5  59.7  64.9 1024.7 -9.9 -9.999 -99.9 -99.99 -9.99
2019/05/23 05:48 EDT    0.30   0.77    0   90    3  59.5  64.9 1024.9 -9.9 -9.999 -99.9 -99.99 -9.99
2019/05/23 05:54 EDT    0.30   0.78    0  354    1  59.4  64.9 1024.9 -9.9 -9.999 -99.9 -99.99 -9.99
2019/05/23 06:00 EDT    0.30   0.80    0  360    2  59.4  64.9 1024.9 -9.9 -9.999 -99.9 -99.99 -9.99
2019/05/23 06:06 EDT    0.31   0.84    1  341    2  59.5  64.9 1025.0 -9.9 -9.999 -99.9 -99.99 -9.99
2019/05/23 06:12 EDT    0.32   0.84    0  187    3  60.3  64.9 1024.8 -9.9 -9.999 -99.9 -99.99 -9.99
2019/05/23 06:18 EDT    0.34   0.85    0   19    1  60.3  64.9 1024.8 -9.9 -9.999 -99.9 -99.99 -9.99
2019/05/23 06:24 EDT    0.37   0.92    2  237    4  60.8  64.9 1025.0 -9.9 -9.999 -99.9 -99.99 -9.99
2019/05/23 06:30 EDT    0.40   0.91    1  126    4  60.3  64.9 1024.8 -9.9 -9.999 -99.9 -99.99 -9.99
2019/05/23 06:36 EDT    0.44   0.99    3  211    4  60.6  64.9 1024.9 -9.9 -9.999 -99.9 -99.99 -9.99
2019/05/23 06:42 EDT    0.49   1.01    5  209    6  61.2  64.9 1025.0 -9.9 -9.999 -99.9 -99.99 -9.99
2019/05/23 06:48 EDT    0.54   1.07    6  220    7  61.0  64.9 1025.3 -9.9 -9.999 -99.9 -99.99 -9.99
2019/05/23 06:54 EDT    0.60   1.15    6  236    7  61.0  64.9 1025.6 -9.9 -9.999 -99.9 -99.99 -9.99
2019/05/23 07:00 EDT    0.67   1.18    6  243    8  60.8  64.9 1025.8 -9.9 -9.999 -99.9 -99.99 -9.99
2019/05/23 07:06 EDT    0.74   1.30    9  245   10  60.6  64.9 1026.1 -9.9 -9.999 -99.9 -99.99 -9.99
2019/05/23 07:12 EDT    0.81   1.31    9  248   11  60.3  64.9 1026.1 -9.9 -9.999 -99.9 -99.99 -9.99
2019/05/23 07:18 EDT    0.89   1.43    9  237   12  60.1  64.9 1026.0 -9.9 -9.999 -99.9 -99.99 -9.99
2019/05/23 07:24 EDT    0.97   1.49   10  211   12  59.4  64.9 1025.5 -9.9 -9.999 -99.9 -99.99 -9.99
2019/05/23 07:30 EDT    1.06   1.55    9  202   12  59.7  64.9 1025.5 -9.9 -9.999 -99.9 -99.99 -9.99
2019/05/23 07:36 EDT    1.15   1.64    9  193   11  59.5  64.9 1025.3 -9.9 -9.999 -99.9 -99.99 -9.99
2019/05/23 07:42 EDT    1.24   1.68   11  186   13  59.0  64.9 1024.8 -9.9 -9.999 -99.9 -99.99 -9.99
2019/05/23 07:48 EDT    1.33   1.74   13  199   15  59.0  64.9 1024.5 -9.9 -9.999 -99.9 -99.99 -9.99
2019/05/23 07:54 EDT    1.43   1.89   14  202   16  58.6  64.8 1024.3 -9.9 -9.999 -99.9 -99.99 -9.99
2019/05/23 08:00 EDT    1.52   1.89   12  189   14  58.5  64.8 1023.7 -9.9 -9.999 -99.9 -99.99 -9.99
2019/05/23 08:06 EDT    1.62   1.96   13  181   15  58.8  64.8 1023.5 -9.9 -9.999 -99.9 -99.99 -9.99
2019/05/23 08:12 EDT    1.72   2.06   13  178   15  59.0  64.8 1023.4 -9.9 -9.999 -99.9 -99.99 -9.99
2019/05/23 08:18 EDT    1.82   2.20   13  184   17  59.5  64.6 1023.8 -9.9 -9.999 -99.9 -99.99 -9.99
2019/05/23 08:24 EDT    1.92   2.24   12  191   15  59.5  64.6 1023.9 -9.9 -9.999 -99.9 -99.99 -9.99
2019/05/23 08:30 EDT    2.02   2.35   10  210   13  58.8  64.6 1024.1 -9.9 -9.999 -99.9 -99.99 -9.99
2019/05/23 08:36 EDT    2.11   2.44    9  222   12  58.5  64.6 1024.4 -9.9 -9.999 -99.9 -99.99 -9.99
2019/05/23 08:42 EDT    2.21   2.56    7  201   11  58.3  64.6 1024.2 -9.9 -9.999 -99.9 -99.99 -9.99
2019/05/23 08:48 EDT    2.31   2.64    7  199    7  58.6  64.6 1024.1 -9.9 -9.999 -99.9 -99.99 -9.99
2019/05/23 08:54 EDT    2.40   2.75    6  214    9  59.0  64.6 1024.1 -9.9 -9.999 -99.9 -99.99 -9.99
2019/05/23 09:00 EDT    2.49   2.87   10  205   13  59.4  64.6 1023.9 -9.9 -9.999 -99.9 -99.99 -9.99
2019/05/23 09:06 EDT    2.58   2.94   10  219   11  59.4  64.6 1024.1 -9.9 -9.999 -99.9 -99.99 -9.99
2019/05/23 09:12 EDT    2.67   3.02    6  212   11  59.0  64.6 1024.1 -9.9 -9.999 -99.9 -99.99 -9.99
2019/05/23 09:18 EDT    2.76   3.10    6  222    9  58.8  64.6 1024.0 -9.9 -9.999 -99.9 -99.99 -9.99
2019/05/23 09:24 EDT    2.84   3.20    2  180    6  59.0  64.4 1024.0 -9.9 -9.999 -99.9 -99.99 -9.99
2019/05/23 09:30 EDT    2.93   3.29    4  194    5  59.2  64.4 1024.0 -9.9 -9.999 -99.9 -99.99 -9.99
2019/05/23 09:36 EDT    3.01   3.39    4  211    6  59.4  64.4 1023.9 -9.9 -9.999 -99.9 -99.99 -9.99
2019/05/23 09:42 EDT    3.09   3.45    4  216    6  59.4  64.4 1023.8 -9.9 -9.999 -99.9 -99.99 -9.99
2019/05/23 09:48 EDT    3.17   3.60    6  219   11  59.7  64.4 1023.7 -9.9 -9.999 -99.9 -99.99 -9.99
2019/05/23 09:54 EDT    3.24   3.62    5  202   12  59.7  64.4 1023.5 -9.9 -9.999 -99.9 -99.99 -9.99
2019/05/23 10:00 EDT    3.32   3.75    5  220    7  59.9  64.4 1023.5 -9.9 -9.999 -99.9 -99.99 -9.99
2019/05/23 10:06 EDT    3.39   3.85    5  235    6  60.1  64.4 1023.6 -9.9 -9.999 -99.9 -99.99 -9.99
2019/05/23 10:12 EDT    3.46   3.94    6  241    7  59.9  64.4 1023.5 -9.9 -9.999 -99.9 -99.99 -9.99
2019/05/23 10:18 EDT    3.53   3.98    7  217    8  60.1  64.4 1023.4 -9.9 -9.999 -99.9 -99.99 -9.99
2019/05/23 10:24 EDT    3.60   4.07   11  208   13  61.0  64.4 1023.4 -9.9 -9.999 -99.9 -99.99 -9.99
2019/05/23 10:30 EDT    3.67   4.12    8  195   11  60.6  64.4 1023.0 -9.9 -9.999 -99.9 -99.99 -9.99
2019/05/23 10:36 EDT    3.73   4.21   10  203   12  61.2  64.4 1022.9 -9.9 -9.999 -99.9 -99.99 -9.99
2019/05/23 10:42 EDT    3.79   4.24   11  196   14  60.8  64.4 1022.6 -9.9 -9.999 -99.9 -99.99 -9.99
2019/05/23 10:48 EDT    3.85   4.32   10  185   15  61.2  64.4 1022.6 -9.9 -9.999 -99.9 -99.99 -9.99
2019/05/23 10:54 EDT    3.90   4.38   10  176   13  61.5  64.4 1022.5 -9.9 -9.999 -99.9 -99.99 -9.99
2019/05/23 11:00 EDT    3.96   4.47   11  175   12  61.7  64.4 1022.4 -9.9 -9.999 -99.9 -99.99 -9.99
2019/05/23 11:06 EDT    4.01   4.54   11  176   13  61.5  64.4 1022.6 -9.9 -9.999 -99.9 -99.99 -9.99
2019/05/23 11:12 EDT    4.05   4.64    7  181   11  61.3  64.4 1022.5 -9.9 -9.999 -99.9 -99.99 -9.99
2019/05/23 11:18 EDT    4.10   4.70    9  173   10  61.5  64.4 1022.3 -9.9 -9.999 -99.9 -99.99 -9.99
2019/05/23 11:24 EDT    4.14   4.76    9  168   11  61.9  64.4 1022.1 -9.9 -9.999 -99.9 -99.99 -9.99
2019/05/23 11:30 EDT    4.17   4.82   10  179   11  62.2  64.4 1021.8 -9.9 -9.999 -99.9 -99.99 -9.99
2019/05/23 11:36 EDT    4.21   4.87   10  181   13  62.2  64.6 1021.8 -9.9 -9.999 -99.9 -99.99 -9.99
2019/05/23 11:42 EDT    4.23   4.88    8  188   13  62.6  64.6 1021.8 -9.9 -9.999 -99.9 -99.99 -9.99
2019/05/23 11:48 EDT    4.26   4.92    8  196   10  63.0  64.6 1021.5 -9.9 -9.999 -99.9 -99.99 -9.99
2019/05/23 11:54 EDT    4.28   4.95    8  205   12  63.3  64.6 1021.5 -9.9 -9.999 -99.9 -99.99 -9.99
2019/05/23 12:00 EDT    4.29   4.98   10  206   13  63.9  64.6 1021.5 -9.9 -9.999 -99.9 -99.99 -9.99
2019/05/23 12:06 EDT    4.30   5.01    8  208   11  63.7  64.6 1021.5 -9.9 -9.999 -99.9 -99.99 -9.99
2019/05/23 12:12 EDT    4.30   5.03    7  202   10  63.7  64.6 1021.2 -9.9 -9.999 -99.9 -99.99 -9.99
2019/05/23 12:18 EDT    4.29   5.09    9  215   13  64.2  64.6 1021.2 -9.9 -9.999 -99.9 -99.99 -9.99
2019/05/23 12:24 EDT    4.28   5.08   11  214   15  64.8  64.6 1021.1 -9.9 -9.999 -99.9 -99.99 -9.99
2019/05/23 12:30 EDT    4.27   5.10   11  221   12  64.6  64.6 1021.0 -9.9 -9.999 -99.9 -99.99 -9.99
2019/05/23 12:36 EDT    4.25   5.12    9  229   12  64.8  64.6 1021.0 -9.9 -9.999 -99.9 -99.99 -9.99
2019/05/23 12:42 EDT    4.22   5.10   11  226   14  64.9  64.6 1020.8 -9.9 -9.999 -99.9 -99.99 -9.99
2019/05/23 12:48 EDT    4.19   5.10   15  219   18  65.7  64.6 1020.6 -9.9 -9.999 -99.9 -99.99 -9.99
2019/05/23 12:54 EDT    4.15   5.03   15  214   17  65.8  64.6 1020.5 -9.9 -9.999 -99.9 -99.99 -9.99
2019/05/23 13:00 EDT    4.10   5.00   11  226   15  65.5  64.6 1020.5 -9.9 -9.999 -99.9 -99.99 -9.99
2019/05/23 13:06 EDT    4.06   4.91   13  225   15  66.0  64.6 1020.3 -9.9 -9.999 -99.9 -99.99 -9.99
2019/05/23 13:12 EDT    4.00   4.85   13  223   14  66.0  64.6 1020.1 -9.9 -9.999 -99.9 -99.99 -9.99
2019/05/23 13:18 EDT    3.94   4.77   12  222   15  65.8  64.6 1020.1 -9.9 -9.999 -99.9 -99.99 -9.99
2019/05/23 13:24 EDT    3.88   4.67   13  228   14  66.2  64.6 1019.9 -9.9 -9.999 -99.9 -99.99 -9.99
2019/05/23 13:30 EDT    3.81   4.56   13  218   16  66.0  64.6 1019.5 -9.9 -9.999 -99.9 -99.99 -9.99
2019/05/23 13:36 EDT    3.73   4.47   14  222   16  66.0  64.8 1019.4 -9.9 -9.999 -99.9 -99.99 -9.99
2019/05/23 13:42 EDT    3.66   4.38   11  222   17  65.8  64.8 1019.2 -9.9 -9.999 -99.9 -99.99 -9.99
2019/05/23 13:48 EDT    3.58   4.25   11  209   16  66.4  64.8 1019.1 -9.9 -9.999 -99.9 -99.99 -9.99
2019/05/23 13:54 EDT    3.50   4.13   10  218   12  66.7  64.8 1019.2 -9.9 -9.999 -99.9 -99.99 -9.99
2019/05/23 14:00 EDT    3.41   4.05   10  218   12  67.1  64.8 1019.0 -9.9 -9.999 -99.9 -99.99 -9.99
2019/05/23 14:06 EDT    3.32   3.94   13  222   14  67.3  64.8 1018.8 -9.9 -9.999 -99.9 -99.99 -9.99
2019/05/23 14:12 EDT    3.24   3.82   10  223   12  67.6  64.9 1018.7 -9.9 -9.999 -99.9 -99.99 -9.99
2019/05/23 14:18 EDT    3.15   3.74    8  228   11  67.1  65.1 1018.7 -9.9 -9.999 -99.9 -99.99 -9.99
2019/05/23 14:24 EDT    3.06   3.62   11  232   12  67.6  65.1 1018.5 -9.9 -9.999 -99.9 -99.99 -9.99
2019/05/23 14:30 EDT    2.96   3.52   10  229   13  67.5  65.1 1018.4 -9.9 -9.999 -99.9 -99.99 -9.99
2019/05/23 14:36 EDT    2.87   3.41   10  232   12  67.6  64.9 1018.3 -9.9 -9.999 -99.9 -99.99 -9.99
2019/05/23 14:42 EDT    2.78   3.30   11  217   15  68.0  64.9 1018.1 -9.9 -9.999 -99.9 -99.99 -9.99
2019/05/23 14:48 EDT    2.69   3.15   12  214   14  67.8  64.9 1018.0 -9.9 -9.999 -99.9 -99.99 -9.99
2019/05/23 14:54 EDT    2.60   3.06   14  219   16  67.8  65.1 1017.9 -9.9 -9.999 -99.9 -99.99 -9.99
2019/05/23 15:00 EDT    2.51   2.96   17  220   19  68.4  65.1 1017.7 -9.9 -9.999 -99.9 -99.99 -9.99
2019/05/23 15:06 EDT    2.43   2.85   16  222   17  68.4  65.3 1017.6 -9.9 -9.999 -99.9 -99.99 -9.99
2019/05/23 15:12 EDT    2.34   2.72   16  220   18  68.4  65.3 1017.4 -9.9 -9.999 -99.9 -99.99 -9.99
2019/05/23 15:18 EDT    2.26   2.61   14  220   17  68.0  65.5 1017.4 -9.9 -9.999 -99.9 -99.99 -9.99
2019/05/23 15:24 EDT    2.17   2.52   14  212   17  68.0  65.5 1017.2 -9.9 -9.999 -99.9 -99.99 -9.99
2019/05/23 15:30 EDT    2.09   2.43   13  222   16  68.2  65.7 1017.1 -9.9 -9.999 -99.9 -99.99 -9.99
2019/05/23 15:36 EDT    2.01   2.35   14  219   15  68.4  65.5 1016.9 -9.9 -9.999 -99.9 -99.99 -9.99
2019/05/23 15:42 EDT    1.94   2.27   12  224   13  68.5  65.5 1016.9 -9.9 -9.999 -99.9 -99.99 -9.99
2019/05/23 15:48 EDT    1.86   2.21   10  230   13  68.5  65.7 1016.8 -9.9 -9.999 -99.9 -99.99 -9.99
2019/05/23 15:54 EDT    1.79   2.16   14  225   16  69.1  65.7 1016.6 -9.9 -9.999 -99.9 -99.99 -9.99
2019/05/23 16:00 EDT    1.72   2.08   15  242   18  69.6  65.7 1016.4 -9.9 -9.999 -99.9 -99.99 -9.99
2019/05/23 16:06 EDT    1.65   2.04    8  217   16  68.5  65.7 1016.4 -9.9 -9.999 -99.9 -99.99 -9.99
2019/05/23 16:12 EDT    1.59   2.00   16  284   22  68.2  65.7 1018.5 -9.9 -9.999 -99.9 -99.99 -9.99
2019/05/23 16:18 EDT    1.53   1.93   15  285   22  66.0  65.7 1018.5 -9.9 -9.999 -99.9 -99.99 -9.99
2019/05/23 16:24 EDT    1.47   1.94   13  285   21  64.4  65.7 1018.2 -9.9 -9.999 -99.9 -99.99 -9.99
2019/05/23 16:30 EDT    1.41   1.87    8  252   12  63.9  65.8 1017.6 -9.9 -9.999 -99.9 -99.99 -9.99
2019/05/23 16:36 EDT    1.35   1.74    5  201   11  63.9  65.8 1016.9 -9.9 -9.999 -99.9 -99.99 -9.99
2019/05/23 16:42 EDT    1.30   1.74   10  215   11  64.0  65.7 1017.1 -9.9 -9.999 -99.9 -99.99 -9.99
2019/05/23 16:48 EDT    1.25   1.71   10  243   11  64.4  65.7 1017.4 -9.9 -9.999 -99.9 -99.99 -9.99
2019/05/23 16:54 EDT    1.21   1.56    9  245   11  64.9  65.8 1016.9 -9.9 -9.999 -99.9 -99.99 -9.99
2019/05/23 17:00 EDT    1.17   1.51    6  217   10  64.6  66.2 1016.5 -9.9 -9.999 -99.9 -99.99 -9.99
2019/05/23 17:06 EDT    1.13   1.52    4  171    5  64.8  66.2 1016.3 -9.9 -9.999 -99.9 -99.99 -9.99
2019/05/23 17:12 EDT    1.09   1.53    4  197    6  65.1  66.0 1016.7 -9.9 -9.999 -99.9 -99.99 -9.99
2019/05/23 17:18 EDT    1.06   1.49    6  191    7  65.3  66.0 1016.5 -9.9 -9.999 -99.9 -99.99 -9.99
2019/05/23 17:24 EDT    1.03   1.42    6  178    6  65.3  66.0 1016.5 -9.9 -9.999 -99.9 -99.99 -9.99
2019/05/23 17:30 EDT    1.01   1.49    6  164    7  65.7  65.8 1016.1 -9.9 -9.999 -99.9 -99.99 -9.99
2019/05/23 17:36 EDT    0.99   1.51    5  154    8  65.8  65.8 1016.0 -9.9 -9.999 -99.9 -99.99 -9.99
2019/05/23 17:42 EDT    0.97   1.46    6  170    8  65.8  66.0 1015.9 -9.9 -9.999 -99.9 -99.99 -9.99
2019/05/23 17:48 EDT    0.96   1.48    5  142    7  65.8  66.0 1015.4 -9.9 -9.999 -99.9 -99.99 -9.99
2019/05/23 17:54 EDT    0.96   1.49    6  154    7  65.3  66.0 1015.3 -9.9 -9.999 -99.9 -99.99 -9.99
2019/05/23 18:00 EDT    0.96   1.52    7  163    8  65.7  66.0 1015.0 -9.9 -9.999 -99.9 -99.99 -9.99
2019/05/23 18:06 EDT    0.97   1.49    7  157    9  66.0  66.0 1014.9 -9.9 -9.999 -99.9 -99.99 -9.99
2019/05/23 18:12 EDT    0.98   1.49    5  152    8  65.7  65.8 1014.8 -9.9 -9.999 -99.9 -99.99 -9.99
2019/05/23 18:18 EDT    0.99   1.58    8  164   10  64.2  65.8 1014.9 -9.9 -9.999 -99.9 -99.99 -9.99
2019/05/23 18:24 EDT    1.02   1.58   10  154   12  63.5  66.0 1014.9 -9.9 -9.999 -99.9 -99.99 -9.99
2019/05/23 18:30 EDT    1.04   1.53   11  149   14  63.1  65.8 1014.8 -9.9 -9.999 -99.9 -99.99 -9.99
2019/05/23 18:36 EDT    1.08   1.58   12  163   14  63.3  65.8 1014.8 -9.9 -9.999 -99.9 -99.99 -9.99
2019/05/23 18:42 EDT    1.12   1.65   10  156   15  63.9  65.8 1014.8 -9.9 -9.999 -99.9 -99.99 -9.99
2019/05/23 18:48 EDT    1.16   1.71    7  164   11  64.6  65.8 1014.8 -9.9 -9.999 -99.9 -99.99 -9.99
2019/05/23 18:54 EDT    1.21   1.70   10  167   11  65.1  66.0 1014.7 -9.9 -9.999 -99.9 -99.99 -9.99
2019/05/23 19:00 EDT    1.27   1.75   11  167   13  64.9  66.0 1014.7 -9.9 -9.999 -99.9 -99.99 -9.99
2019/05/23 19:06 EDT    1.33   1.84   10  165   13  64.9  66.0 1014.4 -9.9 -9.999 -99.9 -99.99 -9.99
2019/05/23 19:12 EDT    1.40   1.91    9  165   12  64.9  66.0 1014.4 -9.9 -9.999 -99.9 -99.99 -9.99
2019/05/23 19:18 EDT    1.47   1.95    9  169   11  64.9  66.0 1014.3 -9.9 -9.999 -99.9 -99.99 -9.99
2019/05/23 19:24 EDT    1.54   2.01    9  172   11  65.1  66.0 1014.3 -9.9 -9.999 -99.9 -99.99 -9.99
2019/05/23 19:30 EDT    1.62   2.16    8  168   10  65.1  66.0 1014.3 -9.9 -9.999 -99.9 -99.99 -9.99
2019/05/23 19:36 EDT    1.70   2.22    7  169    9  65.1  66.0 1014.1 -9.9 -9.999 -99.9 -99.99 -9.99
2019/05/23 19:42 EDT    1.79   2.29    5  165    7  65.1  66.0 1014.0 -9.9 -9.999 -99.9 -99.99 -9.99
2019/05/23 19:48 EDT    1.88   2.40    5  158    7  65.1  66.0 1013.9 -9.9 -9.999 -99.9 -99.99 -9.99
2019/05/23 19:54 EDT    1.97   2.52    6  164    8  64.9  66.0 1013.7 -9.9 -9.999 -99.9 -99.99 -9.99
2019/05/23 20:00 EDT    2.07   2.58    6  165    8  64.8  65.8 1013.4 -9.9 -9.999 -99.9 -99.99 -9.99
2019/05/23 20:06 EDT    2.16   2.71    7  170    9  64.8  65.8 1013.4 -9.9 -9.999 -99.9 -99.99 -9.99
2019/05/23 20:12 EDT    2.26   2.83    6  179    8  64.8  65.8 1013.5 -9.9 -9.999 -99.9 -99.99 -9.99
2019/05/23 20:18 EDT    2.36   2.91    5  164    7  64.4  65.8 1013.4 -9.9 -9.999 -99.9 -99.99 -9.99
2019/05/23 20:24 EDT    2.46   2.99    5  169    6  64.2  65.7 1013.4 -9.9 -9.999 -99.9 -99.99 -9.99
2019/05/23 20:30 EDT    2.55   3.12    3  177    5  64.0  65.7 1013.5 -9.9 -9.999 -99.9 -99.99 -9.99
2019/05/23 20:36 EDT    2.65   3.25    2  176    3  64.0  65.8 1013.4 -9.9 -9.999 -99.9 -99.99 -9.99
2019/05/23 20:42 EDT    2.75   3.31    2  172    3  64.0  65.8 1013.3 -9.9 -9.999 -99.9 -99.99 -9.99
2019/05/23 20:48 EDT    2.85   3.36    1  173    2  64.0  65.7 1013.2 -9.9 -9.999 -99.9 -99.99 -9.99
2019/05/23 20:54 EDT    2.94   3.44    2  203    3  64.0  65.7 1013.2 -9.9 -9.999 -99.9 -99.99 -9.99
2019/05/23 21:00 EDT    3.04   3.60    2  228    2  64.2  65.7 1013.1 -9.9 -9.999 -99.9 -99.99 -9.99
2019/05/23 21:06 EDT    3.13   3.65    2  217    3  64.2  65.7 1013.0 -9.9 -9.999 -99.9 -99.99 -9.99
2019/05/23 21:12 EDT    3.22   3.71    4  213    4  64.4  65.7 1012.9 -9.9 -9.999 -99.9 -99.99 -9.99
2019/05/23 21:18 EDT    3.31   3.81    4  209    4  64.4  65.7 1012.8 -9.9 -9.999 -99.9 -99.99 -9.99
2019/05/23 21:24 EDT    3.40   3.95    4  198    4  64.4  65.7 1012.7 -9.9 -9.999 -99.9 -99.99 -9.99
2019/05/23 21:30 EDT    3.49   4.03    4  191    4  64.4  65.5 1012.5 -9.9 -9.999 -99.9 -99.99 -9.99
2019/05/23 21:36 EDT    3.57   4.14    6  189    6  64.8  65.5 1012.4 -9.9 -9.999 -99.9 -99.99 -9.99
2019/05/23 21:42 EDT    3.65   4.24    6  196    7  64.8  65.5 1012.4 -9.9 -9.999 -99.9 -99.99 -9.99
2019/05/23 21:48 EDT    3.73   4.35    7  208    8  64.9  65.3 1012.4 -9.9 -9.999 -99.9 -99.99 -9.99
2019/05/23 21:54 EDT    3.81   4.45    8  218   10  65.1  65.3 1012.3 -9.9 -9.999 -99.9 -99.99 -9.99
2019/05/23 22:00 EDT    3.88   4.59    8  231   10  65.7  65.1 1012.5 -9.9 -9.999 -99.9 -99.99 -9.99
2019/05/23 22:06 EDT    3.95   4.65    8  235   11  66.0  64.9 1012.5 -9.9 -9.999 -99.9 -99.99 -9.99
2019/05/23 22:12 EDT    4.02   4.68    7  239   10  66.2  64.9 1012.4 -9.9 -9.999 -99.9 -99.99 -9.99
2019/05/23 22:18 EDT    4.09   4.74    9  244   12  66.9  64.9 1012.3 -9.9 -9.999 -99.9 -99.99 -9.99
2019/05/23 22:24 EDT    4.16   4.84   11  247   12  67.8  64.8 1012.1 -9.9 -9.999 -99.9 -99.99 -9.99
2019/05/23 22:30 EDT    4.22   4.87   12  245   14  68.0  64.8 1012.2 -9.9 -9.999 -99.9 -99.99 -9.99
2019/05/23 22:36 EDT    4.29   4.89   11  240   14  67.8  64.8 1012.1 -9.9 -9.999 -99.9 -99.99 -9.99
2019/05/23 22:42 EDT    4.35   4.97   12  236   14  67.8  64.8 1012.0 -9.9 -9.999 -99.9 -99.99 -9.99
2019/05/23 22:48 EDT    4.40   5.05   13  234   15  68.0  64.9 1012.0 -9.9 -9.999 -99.9 -99.99 -9.99
2019/05/23 22:54 EDT    4.46   5.11   15  235   18  68.4  64.9 1012.0 -9.9 -9.999 -99.9 -99.99 -9.99
2019/05/23 23:00 EDT    4.51   5.15   16  234   18  68.9  64.9 1011.8 -9.9 -9.999 -99.9 -99.99 -9.99
2019/05/23 23:06 EDT    4.56   5.23   16  230   19  68.7  64.8 1011.6 -9.9 -9.999 -99.9 -99.99 -9.99
2019/05/23 23:12 EDT    4.61   5.28   17  229   19  69.3  64.8 1011.4 -9.9 -9.999 -99.9 -99.99 -9.99
2019/05/23 23:18 EDT    4.66   5.30   19  232   23  69.6  64.8 1011.3 -9.9 -9.999 -99.9 -99.99 -9.99
2019/05/23 23:24 EDT    4.70   5.34   17  228   20  69.3  64.9 1011.2 -9.9 -9.999 -99.9 -99.99 -9.99
2019/05/23 23:30 EDT    4.74   5.39   18  227   22  69.1  64.9 1011.1 -9.9 -9.999 -99.9 -99.99 -9.99
2019/05/23 23:36 EDT    4.78   5.41   19  231   23  69.8  65.1 1011.0 -9.9 -9.999 -99.9 -99.99 -9.99
2019/05/23 23:42 EDT    4.81   5.41   21  231   24  70.0  65.1 1010.9 -9.9 -9.999 -99.9 -99.99 -9.99
2019/05/23 23:48 EDT    4.84   5.46   20  231   23  70.0  65.1 1010.7 -9.9 -9.999 -99.9 -99.99 -9.99
2019/05/23 23:54 EDT    4.86   5.48   22  235   26  70.3  64.9 1010.6 -9.9 -9.999 -99.9 -99.99 -9.99
2019/05/24 00:00 EDT    4.88   5.49   21  237   28  70.0  64.9 1010.5 -9.9 -9.999 -99.9 -99.99 -9.99
2019/05/24 00:06 EDT    4.90   5.49   21  235   25  70.0  64.9 1010.4 -9.9 -9.999 -99.9 -99.99 -9.99
2019/05/24 00:12 EDT    4.91   5.49   20  241   23  69.6  65.1 1010.4 -9.9 -9.999 -99.9 -99.99 -9.99
2019/05/24 00:18 EDT    4.92   5.49   19  239   23  69.4  65.1 1010.4 -9.9 -9.999 -99.9 -99.99 -9.99
2019/05/24 00:24 EDT    4.92   5.48   19  239   23  69.3  64.9 1010.4 -9.9 -9.999 -99.9 -99.99 -9.99
2019/05/24 00:30 EDT    4.91   5.47   19  245   21  69.8  64.9 1010.5 -9.9 -9.999 -99.9 -99.99 -9.99
2019/05/24 00:36 EDT    4.90   5.43   17  250   21  69.4  64.9 1010.6 -9.9 -9.999 -99.9 -99.99 -9.99
2019/05/24 00:42 EDT    4.88   5.39   18  253   20  70.0  64.9 1010.5 -9.9 -9.999 -99.9 -99.99 -9.99
2019/05/24 00:48 EDT    4.86   5.37   17  262   23  69.4  64.9 1010.7 -9.9 -9.999 -99.9 -99.99 -9.99
2019/05/24 00:54 EDT    4.83   5.31   16  262   18  68.7  64.9 1010.7 -9.9 -9.999 -99.9 -99.99 -9.99
2019/05/24 01:00 EDT    4.79   5.30   19  257   21  69.4  64.9 1010.7 -9.9 -9.999 -99.9 -99.99 -9.99
2019/05/24 01:06 EDT    4.75   5.28   21  256   24  69.6  64.9 1010.5 -9.9 -9.999 -99.9 -99.99 -9.99
2019/05/24 01:12 EDT    4.71   5.21   19  257   22  69.1  64.9 1010.6 -9.9 -9.999 -99.9 -99.99 -9.99
2019/05/24 01:18 EDT    4.65   5.15   18  262   20  68.7  64.9 1010.7 -9.9 -9.999 -99.9 -99.99 -9.99
2019/05/24 01:24 EDT    4.59   5.06   17  258   21  68.7  64.9 1010.7 -9.9 -9.999 -99.9 -99.99 -9.99
2019/05/24 01:30 EDT    4.53   5.07   17  258   20  68.7  64.9 1010.6 -9.9 -9.999 -99.9 -99.99 -9.99
2019/05/24 01:36 EDT    4.46   4.97   18  257   20  68.9  64.9 1010.6 -9.9 -9.999 -99.9 -99.99 -9.99
2019/05/24 01:42 EDT    4.38   4.82   18  259   23  68.5  64.9 1010.6 -9.9 -9.999 -99.9 -99.99 -9.99
2019/05/24 01:48 EDT    4.30   4.74   17  259   19  68.2  64.9 1010.5 -9.9 -9.999 -99.9 -99.99 -9.99
2019/05/24 01:54 EDT    4.22   4.66   16  260   19  67.5  64.9 1010.5 -9.9 -9.999 -99.9 -99.99 -9.99
2019/05/24 02:00 EDT    4.13   4.50   16  257   18  67.8  64.9 1010.4 -9.9 -9.999 -99.9 -99.99 -9.99
2019/05/24 02:06 EDT    4.03   4.38   15  256   19  67.6  64.8 1010.3 -9.9 -9.999 -99.9 -99.99 -9.99
2019/05/24 02:12 EDT    3.94   4.32   16  259   19  68.2  64.8 1010.3 -9.9 -9.999 -99.9 -99.99 -9.99
2019/05/24 02:18 EDT    3.84   4.19   14  262   16  67.5  64.8 1010.3 -9.9 -9.999 -99.9 -99.99 -9.99
2019/05/24 02:24 EDT    3.74   4.15   15  260   17  67.6  64.8 1010.3 -9.9 -9.999 -99.9 -99.99 -9.99
2019/05/24 02:30 EDT    3.63   4.04   15  258   17  67.8  64.8 1010.3 -9.9 -9.999 -99.9 -99.99 -9.99
2019/05/24 02:36 EDT    3.53   3.92   16  258   17  67.8  64.9 1010.4 -9.9 -9.999 -99.9 -99.99 -9.99
2019/05/24 02:42 EDT    3.42   3.79   14  259   17  67.5  64.9 1010.3 -9.9 -9.999 -99.9 -99.99 -9.99
2019/05/24 02:48 EDT    3.31   3.69   15  259   16  67.5  64.9 1010.4 -9.9 -9.999 -99.9 -99.99 -9.99
2019/05/24 02:54 EDT    3.20   3.55   15  259   17  67.5  64.9 1010.4 -9.9 -9.999 -99.9 -99.99 -9.99
2019/05/24 03:00 EDT    3.09   3.40   16  259   18  67.6  64.9 1010.4 -9.9 -9.999 -99.9 -99.99 -9.99
2019/05/24 03:06 EDT    2.98   3.21   17  257   18  67.5  64.8 1010.3 -9.9 -9.999 -99.9 -99.99 -9.99
2019/05/24 03:12 EDT    2.88   3.12   14  260   17  66.9  64.8 1010.3 -9.9 -9.999 -99.9 -99.99 -9.99
2019/05/24 03:18 EDT    2.77   2.98   15  257   16  67.1  64.8 1010.4 -9.9 -9.999 -99.9 -99.99 -9.99
2019/05/24 03:24 EDT    2.66   2.86   15  257   17  67.3  64.9 1010.3 -9.9 -9.999 -99.9 -99.99 -9.99
2019/05/24 03:30 EDT    2.56   2.74   14  257   17  67.3  64.9 1010.3 -9.9 -9.999 -99.9 -99.99 -9.99
2019/05/24 03:36 EDT    2.45   2.67   14  256   16  67.3  64.9 1010.2 -9.9 -9.999 -99.9 -99.99 -9.99
2019/05/24 03:42 EDT    2.35   2.60   14  257   15  66.9  64.9 1010.2 -9.9 -9.999 -99.9 -99.99 -9.99
2019/05/24 03:48 EDT    2.25   2.47   13  260   15  66.6  64.9 1010.2 -9.9 -9.999 -99.9 -99.99 -9.99
2019/05/24 03:54 EDT    2.15   2.39   11  265   14  66.4  64.9 1010.3 -9.9 -9.999 -99.9 -99.99 -9.99
2019/05/24 04:00 EDT    2.06   2.32   13  264   14  66.6  64.9 1010.4 -9.9 -9.999 -99.9 -99.99 -9.99
2019/05/24 04:06 EDT    1.97   2.24   13  268   16  66.9  64.9 1010.4 -9.9 -9.999 -99.9 -99.99 -9.99
2019/05/24 04:12 EDT    1.87   2.14   14  270   16  66.9  64.9 1010.6 -9.9 -9.999 -99.9 -99.99 -9.99
2019/05/24 04:18 EDT    1.79   2.08   14  274   16  66.9  64.8 1010.5 -9.9 -9.999 -99.9 -99.99 -9.99
2019/05/24 04:24 EDT    1.70   2.00   13  274   15  66.6  64.8 1010.7 -9.9 -9.999 -99.9 -99.99 -9.99
2019/05/24 04:30 EDT    1.61   1.91   12  273   15  66.4  64.8 1010.6 -9.9 -9.999 -99.9 -99.99 -9.99
2019/05/24 04:36 EDT    1.53   1.83   13  272   14  66.2  64.8 1010.7 -9.9 -9.999 -99.9 -99.99 -9.99
2019/05/24 04:42 EDT    1.45   1.75   14  272   16  66.6  64.8 1010.7 -9.9 -9.999 -99.9 -99.99 -9.99
2019/05/24 04:48 EDT    1.38   1.68   13  273   15  66.2  64.8 1010.7 -9.9 -9.999 -99.9 -99.99 -9.99
2019/05/24 04:54 EDT    1.30   1.57   13  273   15  65.8  64.8 1010.7 -9.9 -9.999 -99.9 -99.99 -9.99
2019/05/24 05:00 EDT    1.23   1.50   13  278   18  65.8  64.8 1010.9 -9.9 -9.999 -99.9 -99.99 -9.99
2019/05/24 05:06 EDT    1.16   1.38   12  278   14  65.3  64.8 1010.9 -9.9 -9.999 -99.9 -99.99 -9.99
2019/05/24 05:12 EDT    1.10   1.33   11  282   14  64.8  64.8 1011.0 -9.9 -9.999 -99.9 -99.99 -9.99
2019/05/24 05:18 EDT    1.03   1.25   13  279   14  64.9  64.8 1011.0 -9.9 -9.999 -99.9 -99.99 -9.99
2019/05/24 05:24 EDT    0.98   1.15   13  277   15  65.3  64.8 1011.0 -9.9 -9.999 -99.9 -99.99 -9.99
2019/05/24 05:30 EDT    0.92   1.11   13  274   15  65.3  64.8 1010.9 -9.9 -9.999 -99.9 -99.99 -9.99
2019/05/24 05:36 EDT    0.87   1.06   13  279   16  65.7  64.8 1011.0 -9.9 -9.999 -99.9 -99.99 -9.99
2019/05/24 05:42 EDT    0.82   1.02   14  274   15  65.7  64.8 1011.0 -9.9 -9.999 -99.9 -99.99 -9.99
2019/05/24 05:48 EDT    0.77   0.96   12  272   15  65.5  64.8 1011.2 -9.9 -9.999 -99.9 -99.99 -9.99
2019/05/24 05:54 EDT    0.73   0.96   12  274   14  65.3  64.8 1011.4 -9.9 -9.999 -99.9 -99.99 -9.99
2019/05/24 06:00 EDT    0.69   0.93   13  274   16  65.7  64.8 1011.4 -9.9 -9.999 -99.9 -99.99 -9.99
2019/05/24 06:06 EDT    0.66   0.91   17  278   20  66.6  64.8 1011.3 -9.9 -9.999 -99.9 -99.99 -9.99
2019/05/24 06:12 EDT    0.63   0.85   16  285   22  66.7  64.8 1011.5 -9.9 -9.999 -99.9 -99.99 -9.99
2019/05/24 06:18 EDT    0.61   0.86   13  285   20  66.4  64.8 1011.6 -9.9 -9.999 -99.9 -99.99 -9.99
2019/05/24 06:24 EDT    0.59   0.79   16  291   19  66.6  64.8 1011.8 -9.9 -9.999 -99.9 -99.99 -9.99
2019/05/24 06:30 EDT    0.58   0.78   17  296   19  66.6  64.8 1011.9 -9.9 -9.999 -99.9 -99.99 -9.99
2019/05/24 06:36 EDT    0.57   0.73   16  303   20  66.4  64.8 1012.1 -9.9 -9.999 -99.9 -99.99 -9.99
2019/05/24 06:42 EDT    0.57   0.70   13  303   17  66.0  64.8 1012.2 -9.9 -9.999 -99.9 -99.99 -9.99
2019/05/24 06:48 EDT    0.57   0.67   12  305   14  66.2  64.8 1012.3 -9.9 -9.999 -99.9 -99.99 -9.99
2019/05/24 06:54 EDT    0.58   0.63   12  306   15  66.2  64.8 1012.5 -9.9 -9.999 -99.9 -99.99 -9.99
2019/05/24 07:00 EDT    0.59   0.63   13  310   15  66.6  64.8 1012.7 -9.9 -9.999 -99.9 -99.99 -9.99
2019/05/24 07:06 EDT    0.61   0.59   13  309   16  66.7  64.8 1012.7 -9.9 -9.999 -99.9 -99.99 -9.99
2019/05/24 07:12 EDT    0.64   0.60   14  311   19  66.9  64.8 1012.7 -9.9 -9.999 -99.9 -99.99 -9.99
2019/05/24 07:18 EDT    0.67   0.61   18  310   23  67.3  64.8 1012.7 -9.9 -9.999 -99.9 -99.99 -9.99
2019/05/24 07:24 EDT    0.71   0.60   17  311   23  66.9  64.8 1012.7 -9.9 -9.999 -99.9 -99.99 -9.99
2019/05/24 07:30 EDT    0.75   0.67   18  312   23  66.9  64.8 1012.9 -9.9 -9.999 -99.9 -99.99 -9.99
2019/05/24 07:36 EDT    0.80   0.70   15  312   21  66.7  64.8 1012.9 -9.9 -9.999 -99.9 -99.99 -9.99
2019/05/24 07:42 EDT    0.85   0.77   14  310   18  66.4  64.8 1012.8 -9.9 -9.999 -99.9 -99.99 -9.99
2019/05/24 07:48 EDT    0.90   0.77   16  305   18  66.6  64.8 1012.9 -9.9 -9.999 -99.9 -99.99 -9.99
2019/05/24 07:54 EDT    0.96   0.87   16  309   18  66.4  64.8 1012.7 -9.9 -9.999 -99.9 -99.99 -9.99
2019/05/24 08:00 EDT    1.03   0.92   15  308   18  66.0  64.8 1012.7 -9.9 -9.999 -99.9 -99.99 -9.99
2019/05/24 08:06 EDT    1.10   0.95   15  316   17  66.6  64.8 1012.8 -9.9 -9.999 -99.9 -99.99 -9.99
2019/05/24 08:12 EDT    1.17   1.04   14  307   18  66.2  64.8 1012.7 -9.9 -9.999 -99.9 -99.99 -9.99
2019/05/24 08:18 EDT    1.24   1.12   18  301   26  66.7  64.8 1012.7 -9.9 -9.999 -99.9 -99.99 -9.99
2019/05/24 08:24 EDT    1.32   1.24   17  302   22  66.7  64.8 1012.6 -9.9 -9.999 -99.9 -99.99 -9.99
2019/05/24 08:30 EDT    1.40   1.31   20  309   26  67.1  64.8 1012.7 -9.9 -9.999 -99.9 -99.99 -9.99
2019/05/24 08:36 EDT    1.48   1.37   21  311   23  67.1  64.6 1012.8 -9.9 -9.999 -99.9 -99.99 -9.99
2019/05/24 08:42 EDT    1.57   1.45   23  310   29  67.3  64.6 1012.9 -9.9 -9.999 -99.9 -99.99 -9.99
2019/05/24 08:48 EDT    1.65   1.58   22  309   25  67.5  64.6 1013.0 -9.9 -9.999 -99.9 -99.99 -9.99
2019/05/24 08:54 EDT    1.74   1.66   21  314   28  67.5  64.6 1013.1 -9.9 -9.999 -99.9 -99.99 -9.99
2019/05/24 09:00 EDT    1.82   1.70   17  301   23  66.4  64.4 1013.1 -9.9 -9.999 -99.9 -99.99 -9.99
2019/05/24 09:06 EDT    1.91   1.78   21  297   25  66.2  64.4 1013.0 -9.9 -9.999 -99.9 -99.99 -9.99
2019/05/24 09:12 EDT    1.99   1.85   20  299   23  66.4  64.4 1013.1 -9.9 -9.999 -99.9 -99.99 -9.99
2019/05/24 09:18 EDT    2.08   1.92   18  300   21  65.8  64.4 1013.2 -9.9 -9.999 -99.9 -99.99 -9.99
2019/05/24 09:24 EDT    2.16   1.99   20  302   23  66.0  64.4 1013.2 -9.9 -9.999 -99.9 -99.99 -9.99
2019/05/24 09:30 EDT    2.25   2.11   19  303   23  66.2  64.4 1013.1 -9.9 -9.999 -99.9 -99.99 -9.99
2019/05/24 09:36 EDT    2.33   2.19   20  302   24  66.4  64.4 1013.0 -9.9 -9.999 -99.9 -99.99 -9.99
2019/05/24 09:42 EDT    2.41   2.32   19  302   23  66.7  64.4 1013.0 -9.9 -9.999 -99.9 -99.99 -9.99
2019/05/24 09:48 EDT    2.49   2.36   18  300   20  66.4  64.4 1013.0 -9.9 -9.999 -99.9 -99.99 -9.99
2019/05/24 09:54 EDT    2.57   2.50   18  307   22  66.4  64.4 1013.0 -9.9 -9.999 -99.9 -99.99 -9.99
2019/05/24 10:00 EDT    2.65   2.59   18  304   21  66.4  64.4 1013.1 -9.9 -9.999 -99.9 -99.99 -9.99
2019/05/24 10:06 EDT    2.73   2.62   19  311   22  66.9  64.4 1013.1 -9.9 -9.999 -99.9 -99.99 -9.99
2019/05/24 10:12 EDT    2.80   2.70   18  309   21  66.7  64.4 1013.1 -9.9 -9.999 -99.9 -99.99 -9.99
2019/05/24 10:18 EDT    2.88   2.80   18  312   22  67.1  64.4 1013.2 -9.9 -9.999 -99.9 -99.99 -9.99
2019/05/24 10:24 EDT    2.95   2.88   20  310   25  67.8  64.4 1013.2 -9.9 -9.999 -99.9 -99.99 -9.99
2019/05/24 10:30 EDT    3.02   2.94   17  312   20  67.8  64.4 1013.3 -9.9 -9.999 -99.9 -99.99 -9.99
2019/05/24 10:36 EDT    3.09   3.03   20  310   25  68.5  64.2 1013.3 -9.9 -9.999 -99.9 -99.99 -9.99
2019/05/24 10:42 EDT    3.16   3.13   15  315   25  68.4  64.2 1013.4 -9.9 -9.999 -99.9 -99.99 -9.99
2019/05/24 10:48 EDT    3.23   3.23   20  313   25  68.2  64.2 1013.5 -9.9 -9.999 -99.9 -99.99 -9.99
2019/05/24 10:54 EDT    3.29   3.29   19  316   26  68.7  64.0 1013.4 -9.9 -9.999 -99.9 -99.99 -9.99
2019/05/24 11:00 EDT    3.36   3.38   21  305   24  67.5  64.0 1013.3 -9.9 -9.999 -99.9 -99.99 -9.99
2019/05/24 11:06 EDT    3.42   3.49   22  315   28  68.4  64.0 1013.4 -9.9 -9.999 -99.9 -99.99 -9.99
2019/05/24 11:12 EDT    3.49   3.51   21  319   29  68.4  63.9 1013.6 -9.9 -9.999 -99.9 -99.99 -9.99
2019/05/24 11:18 EDT    3.55   3.59   24  318   27  69.3  63.9 1013.7 -9.9 -9.999 -99.9 -99.99 -9.99
2019/05/24 11:24 EDT    3.61   3.70   21  318   26  68.7  63.9 1013.6 -9.9 -9.999 -99.9 -99.99 -9.99
2019/05/24 11:30 EDT    3.66   3.73   19  315   25  68.2  63.9 1013.7 -9.9 -9.999 -99.9 -99.99 -9.99
2019/05/24 11:36 EDT    3.72   3.77   24  310   27  68.0  63.9 1013.6 -9.9 -9.999 -99.9 -99.99 -9.99
2019/05/24 11:42 EDT    3.77   3.83   25  320   30  69.1  63.9 1013.6 -9.9 -9.999 -99.9 -99.99 -9.99
2019/05/24 11:48 EDT    3.82   3.95   21  320   32  68.9  63.9 1013.6 -9.9 -9.999 -99.9 -99.99 -9.99
2019/05/24 11:54 EDT    3.87   3.95   17  317   22  68.5  63.9 1013.8 -9.9 -9.999 -99.9 -99.99 -9.99
2019/05/24 12:00 EDT    3.92   4.02   20  312   24  67.8  63.9 1013.7 -9.9 -9.999 -99.9 -99.99 -9.99
2019/05/24 12:06 EDT    3.96   4.11   21  320   27  68.5  63.9 1014.0 -9.9 -9.999 -99.9 -99.99 -9.99
2019/05/24 12:12 EDT    4.00   4.11   16  315   22  68.9  63.9 1014.0 -9.9 -9.999 -99.9 -99.99 -9.99
2019/05/24 12:18 EDT    4.04   4.14   22  306   25  68.4  63.9 1013.9 -9.9 -9.999 -99.9 -99.99 -9.99
2019/05/24 12:24 EDT    4.07   4.23   17  312   25  68.7  63.9 1014.1 -9.9 -9.999 -99.9 -99.99 -9.99
2019/05/24 12:30 EDT    4.10   4.24   18  309   21  68.9  64.0 1014.2 -9.9 -9.999 -99.9 -99.99 -9.99
2019/05/24 12:36 EDT    4.13   4.26   17  315   22  68.9  63.9 1014.3 -9.9 -9.999 -99.9 -99.99 -9.99
2019/05/24 12:42 EDT    4.15   4.30   20  317   25  70.0  63.9 1014.3 -9.9 -9.999 -99.9 -99.99 -9.99
2019/05/24 12:48 EDT    4.16   4.32   21  315   26  69.4  64.0 1014.5 -9.9 -9.999 -99.9 -99.99 -9.99
2019/05/24 12:54 EDT    4.17   4.34   22  318   26  70.3  64.0 1014.4 -9.9 -9.999 -99.9 -99.99 -9.99
2019/05/24 13:00 EDT    4.17   4.36   20  313   25  69.4  64.0 1014.4 -9.9 -9.999 -99.9 -99.99 -9.99
2019/05/24 13:06 EDT    4.17   4.36   19  318   26  69.8  64.0 1014.4 -9.9 -9.999 -99.9 -99.99 -9.99
2019/05/24 13:12 EDT    4.17   4.34   18  315   24  69.6  64.0 1014.3 -9.9 -9.999 -99.9 -99.99 -9.99
2019/05/24 13:18 EDT    4.15   4.36   19  315   26  70.5  64.0 1014.3 -9.9 -9.999 -99.9 -99.99 -9.99
2019/05/24 13:24 EDT    4.14   4.31   21  312   26  70.2  64.0 1014.3 -9.9 -9.999 -99.9 -99.99 -9.99
2019/05/24 13:30 EDT    4.11   4.31   23  315   28  70.3  64.0 1014.3 -9.9 -9.999 -99.9 -99.99 -9.99
2019/05/24 13:36 EDT    4.08   4.27   25  313   31  70.7  64.0 1014.3 -9.9 -9.999 -99.9 -99.99 -9.99
2019/05/24 13:42 EDT    4.05   4.26   19  325   26  71.2  64.0 1014.5 -9.9 -9.999 -99.9 -99.99 -9.99
2019/05/24 13:48 EDT    4.01   4.18   17  323   23  70.2  64.0 1014.5 -9.9 -9.999 -99.9 -99.99 -9.99
2019/05/24 13:54 EDT    3.96   4.14   17  328   23  71.8  63.9 1014.5 -9.9 -9.999 -99.9 -99.99 -9.99
2019/05/24 14:00 EDT    3.91   4.03   16  321   26  70.9  63.9 1014.5 -9.9 -9.999 -99.9 -99.99 -9.99
2019/05/24 14:06 EDT    3.85   4.01   16  319   21  71.1  63.9 1014.6 -9.9 -9.999 -99.9 -99.99 -9.99
2019/05/24 14:12 EDT    3.79   3.91   15  331   23  71.2  63.9 1014.7 -9.9 -9.999 -99.9 -99.99 -9.99
2019/05/24 14:18 EDT    3.73   3.81   19  327   25  71.1  64.0 1014.8 -9.9 -9.999 -99.9 -99.99 -9.99
2019/05/24 14:24 EDT    3.66   3.75   17  332   24  71.2  64.0 1014.8 -9.9 -9.999 -99.9 -99.99 -9.99
2019/05/24 14:30 EDT    3.59   3.66   22  337   27  71.2  64.0 1014.7 -9.9 -9.999 -99.9 -99.99 -9.99
2019/05/24 14:36 EDT    3.52   3.61   18  336   27  71.8  64.0 1014.8 -9.9 -9.999 -99.9 -99.99 -9.99
2019/05/24 14:42 EDT    3.44   3.51   20  336   23  71.6  64.0 1014.9 -9.9 -9.999 -99.9 -99.99 -9.99
2019/05/24 14:48 EDT    3.36   3.42   18  338   24  72.1  64.0 1014.9 -9.9 -9.999 -99.9 -99.99 -9.99
2019/05/24 14:54 EDT    3.28   3.34   18  336   23  72.3  64.0 1015.0 -9.9 -9.999 -99.9 -99.99 -9.99
2019/05/24 15:00 EDT    3.20   3.25   15  337   22  71.2  64.0 1015.0 -9.9 -9.999 -99.9 -99.99 -9.99
2019/05/24 15:06 EDT    3.11   3.12   16  330   20  70.2  64.0 1015.0 -9.9 -9.999 -99.9 -99.99 -9.99
2019/05/24 15:12 EDT    3.03   3.04   20  316   24  70.7  64.0 1015.0 -9.9 -9.999 -99.9 -99.99 -9.99
2019/05/24 15:18 EDT    2.94   2.91   17  329   27  71.4  64.2 1015.1 -9.9 -9.999 -99.9 -99.99 -9.99
2019/05/24 15:24 EDT    2.86   2.81   18  330   23  72.1  64.2 1015.1 -9.9 -9.999 -99.9 -99.99 -9.99
2019/05/24 15:30 EDT    2.78   2.74   16  331   22  71.2  64.2 1015.2 -9.9 -9.999 -99.9 -99.99 -9.99
2019/05/24 15:36 EDT    2.69   2.68   16  331   21  71.2  64.0 1015.2 -9.9 -9.999 -99.9 -99.99 -9.99
2019/05/24 15:42 EDT    2.61   2.57   13  325   17  70.3  64.0 1015.3 -9.9 -9.999 -99.9 -99.99 -9.99
2019/05/24 15:48 EDT    2.53   2.50   16  336   21  70.7  64.0 1015.4 -9.9 -9.999 -99.9 -99.99 -9.99
2019/05/24 15:54 EDT    2.45   2.42   16  327   21  71.1  64.0 1015.5 -9.9 -9.999 -99.9 -99.99 -9.99
2019/05/24 16:00 EDT    2.38   2.37   16  329   20  71.8  64.0 1015.4 -9.9 -9.999 -99.9 -99.99 -9.99
2019/05/24 16:06 EDT    2.30   2.29   16  336   24  71.8  64.0 1015.5 -9.9 -9.999 -99.9 -99.99 -9.99
2019/05/24 16:12 EDT    2.23   2.23   16  339   20  72.0  64.0 1015.6 -9.9 -9.999 -99.9 -99.99 -9.99
2019/05/24 16:18 EDT    2.16   2.15   14  343   19  70.7  64.0 1015.7 -9.9 -9.999 -99.9 -99.99 -9.99
2019/05/24 16:24 EDT    2.09   2.08   16  346   21  71.8  64.0 1015.8 -9.9 -9.999 -99.9 -99.99 -9.99
2019/05/24 16:30 EDT    2.03   2.03   12  349   24  71.8  63.9 1016.0 -9.9 -9.999 -99.9 -99.99 -9.99
2019/05/24 16:36 EDT    1.97   1.95   14  344   20  70.9  63.9 1016.2 -9.9 -9.999 -99.9 -99.99 -9.99
2019/05/24 16:42 EDT    1.90   1.91   12  345   20  70.7  64.0 1016.3 -9.9 -9.999 -99.9 -99.99 -9.99
2019/05/24 16:48 EDT    1.85   1.83   17  339   21  71.6  64.0 1016.4 -9.9 -9.999 -99.9 -99.99 -9.99
2019/05/24 16:54 EDT    1.79   1.80   15  334   20  71.2  63.9 1016.5 -9.9 -9.999 -99.9 -99.99 -9.99
2019/05/24 17:00 EDT    1.74   1.75   13  349   19  71.4  63.9 1016.5 -9.9 -9.999 -99.9 -99.99 -9.99
2019/05/24 17:06 EDT    1.69   1.70   12  351   20  71.2  63.9 1016.6 -9.9 -9.999 -99.9 -99.99 -9.99
2019/05/24 17:12 EDT    1.64   1.66   14  350   18  70.9  63.9 1016.6 -9.9 -9.999 -99.9 -99.99 -9.99
2019/05/24 17:18 EDT    1.59   1.63   13  354   21  71.2  63.9 1016.9 -9.9 -9.999 -99.9 -99.99 -9.99
2019/05/24 17:24 EDT    1.55   1.58   12  345   18  70.5  63.9 1017.0 -9.9 -9.999 -99.9 -99.99 -9.99
2019/05/24 17:30 EDT    1.50   1.55   13  347   20  70.5  64.0 1017.2 -9.9 -9.999 -99.9 -99.99 -9.99
2019/05/24 17:36 EDT    1.47   1.51   11  347   21  70.7  64.0 1017.2 -9.9 -9.999 -99.9 -99.99 -9.99
2019/05/24 17:42 EDT    1.43   1.52   14  334   18  70.3  64.0 1017.3 -9.9 -9.999 -99.9 -99.99 -9.99
2019/05/24 17:48 EDT    1.40 -99.99 -999 -999 -999 -99.9 -99.9 -999.9 -9.9 -9.999 -99.9 -99.99 -9.99

Revised: 08/08/2018
NOAA / National Ocean Service
Web site owner: Center for Operational Oceanographic Products and Services